Observation data for JA Ranch on 12/06/2019      Previous  Date       Current Mesonet Observations  Soil Data  Daily Summary Page  Observations in Plain Language
KPD3 060600Z 32017G23KT 09/04 A3017 RMK A01 T00870039  RH  072%=      5-min Rain = 0
KPD3 060601Z 31018KT 09/04 A3017 RMK A01 T00870039  RH  072%=      5-min Rain = 0
KPD3 060602Z 32017KT 09/04 A3017 RMK A01 T00870039  RH  072%=      5-min Rain = 0
KPD3 060603Z 32015KT 09/04 A3017 RMK A01 T00870039  RH  072%=      5-min Rain = 0
KPD3 060604Z 32015KT 09/04 A3017 RMK A01 T00880040  RH  072%=      5-min Rain = 0
KPD3 060605Z 32015KT 09/04 A3017 RMK A01 T00870040  RH  072%=      5-min Rain = 0
KPD3 060606Z 32014G19KT 09/04 A3017 RMK A01 T00870040  RH  072%=      5-min Rain = 0
KPD3 060607Z 32014KT 09/04 A3017 RMK A01 T00870040  RH  072%=      5-min Rain = 0
KPD3 060608Z 32014KT 09/04 A3017 RMK A01 T00870040  RH  073%=      5-min Rain = 0
KPD3 060609Z 32016KT 09/04 A3018 RMK A01 T00870040  RH  073%=      5-min Rain = 0
KPD3 060610Z 32012KT 09/04 A3018 RMK A01 T00870040  RH  073%=      5-min Rain = 0
KPD3 060611Z 33014KT 09/04 A3018 RMK A01 T00870040  RH  073%=      5-min Rain = 0
KPD3 060612Z 32015KT 09/04 A3018 RMK A01 T00870041  RH  073%=      5-min Rain = 0
KPD3 060613Z 32014KT 09/04 A3018 RMK A01 T00870041  RH  073%=      5-min Rain = 0
KPD3 060614Z 32014KT 09/04 A3018 RMK A01 T00870041  RH  073%=      5-min Rain = 0
KPD3 060615Z 33013KT 09/04 A3018 RMK A01 T00870041  RH  073%=      5-min Rain = 0
KPD3 060616Z 32014KT 09/04 A3018 RMK A01 T00870041  RH  073%=      5-min Rain = 0
KPD3 060617Z 32016KT 09/04 A3018 RMK A01 T00870041  RH  073%=      5-min Rain = 0
KPD3 060618Z 32016KT 09/04 A3018 RMK A01 T00870040  RH  073%=      5-min Rain = 0
KPD3 060619Z 32018KT 09/04 A3018 RMK A01 T00870040  RH  072%=      5-min Rain = 0
KPD3 060620Z 32018KT 09/04 A3018 RMK A01 T00870040  RH  072%=      5-min Rain = 0
KPD3 060621Z 32016KT 09/04 A3018 RMK A01 T00880040  RH  072%=      5-min Rain = 0
KPD3 060622Z 32015KT 09/04 A3018 RMK A01 T00880040  RH  072%=      5-min Rain = 0
KPD3 060623Z 32016KT 09/04 A3018 RMK A01 T00880040  RH  072%=      5-min Rain = 0
KPD3 060624Z 32016KT 09/04 A3018 RMK A01 T00880040  RH  072%=      5-min Rain = 0
KPD3 060625Z 32015KT 09/04 A3018 RMK A01 T00880040  RH  072%=      5-min Rain = 0
KPD3 060626Z 32016G21KT 09/04 A3018 RMK A01 T00880040  RH  072%=      5-min Rain = 0
KPD3 060627Z 32017G22KT 09/04 A3018 RMK A01 T00870040  RH  072%=      5-min Rain = 0
KPD3 060628Z 32019KT 09/04 A3018 RMK A01 T00880039  RH  072%=      5-min Rain = 0
KPD3 060629Z 32017KT 09/04 A3018 RMK A01 T00880039  RH  071%=      5-min Rain = 0
KPD3 060630Z 33016KT 09/04 A3018 RMK A01 T00880039  RH  071%=      5-min Rain = 0
KPD3 060631Z 32016KT 09/04 A3018 RMK A01 T00880039  RH  071%=      5-min Rain = 0
KPD3 060632Z 33014KT 09/04 A3018 RMK A01 T00880039  RH  071%=      5-min Rain = 0
KPD3 060633Z 33016KT 09/04 A3018 RMK A01 T00890039  RH  071%=      5-min Rain = 0
KPD3 060634Z 33018G23KT 09/04 A3018 RMK A01 T00880038  RH  071%=      5-min Rain = 0
KPD3 060635Z 33018KT 09/04 A3018 RMK A01 T00890038  RH  070%=      5-min Rain = 0
KPD3 060636Z 32016KT 09/04 A3018 RMK A01 T00890038  RH  070%=      5-min Rain = 0
KPD3 060637Z 33018KT 09/04 A3018 RMK A01 T00890038  RH  070%=      5-min Rain = 0
KPD3 060638Z 33018KT 09/04 A3019 RMK A01 T00890038  RH  070%=      5-min Rain = 0
KPD3 060639Z 33021KT 09/04 A3018 RMK A01 T00890038  RH  070%=      5-min Rain = 0
KPD3 060640Z 33021KT 09/04 A3019 RMK A01 T00890037  RH  070%=      5-min Rain = 0
KPD3 060641Z 33020KT 09/04 A3019 RMK A01 T00890037  RH  070%=      5-min Rain = 0
KPD3 060642Z 33017G23KT 09/04 A3019 RMK A01 T00890037  RH  070%=      5-min Rain = 0
KPD3 060643Z 33018KT 09/04 A3019 RMK A01 T00890037  RH  070%=      5-min Rain = 0
KPD3 060644Z 33016KT 09/04 A3019 RMK A01 T00880037  RH  070%=      5-min Rain = 0
KPD3 060645Z 33017KT 09/04 A3019 RMK A01 T00880037  RH  071%=      5-min Rain = 0
KPD3 060646Z 32017KT 09/04 A3019 RMK A01 T00870037  RH  071%=      5-min Rain = 0
KPD3 060647Z 33021G26KT 09/04 A3019 RMK A01 T00870037  RH  070%=      5-min Rain = 0
KPD3 060648Z 33021KT 09/04 A3019 RMK A01 T00870036  RH  070%=      5-min Rain = 0
KPD3 060649Z 33019KT 09/04 A3019 RMK A01 T00870036  RH  070%=      5-min Rain = 0
KPD3 060650Z 33017KT 09/04 A3019 RMK A01 T00880036  RH  070%=      5-min Rain = 0
KPD3 060651Z 33017G22KT 09/04 A3019 RMK A01 T00870036  RH  070%=      5-min Rain = 0
KPD3 060652Z 33020KT 09/04 A3019 RMK A01 T00870036  RH  070%=      5-min Rain = 0
KPD3 060653Z 33017KT 09/04 A3019 RMK A01 T00870035  RH  070%=      5-min Rain = 0
KPD3 060654Z 33016G22KT 09/04 A3019 RMK A01 T00870035  RH  070%=      5-min Rain = 0
KPD3 060655Z 33019G25KT 09/04 A3019 RMK A01 T00870035  RH  070%=      5-min Rain = 0
KPD3 060656Z 33020KT 09/04 A3019 RMK A01 T00870035  RH  070%=      5-min Rain = 0
KPD3 060657Z 33019G24KT 09/03 A3019 RMK A01 T00870034  RH  069%=      5-min Rain = 0
KPD3 060658Z 33021KT 09/03 A3019 RMK A01 T00870034  RH  069%=      5-min Rain = 0
KPD3 060659Z 32020KT 09/03 A3019 RMK A01 T00870034  RH  069%=      5-min Rain = 0
KPD3 060700Z 33023KT 09/03 A3019 RMK A01 T00870034  RH  069%=      5-min Rain = 0
KPD3 060701Z 33019G26KT 09/03 A3019 RMK A01 T00870034  RH  069%=      5-min Rain = 0
KPD3 060702Z 33018G23KT 09/03 A3019 RMK A01 T00870034  RH  069%=      5-min Rain = 0
KPD3 060703Z 33021G28KT 09/03 A3019 RMK A01 T00870033  RH  069%=      5-min Rain = 0
KPD3 060704Z 33022G29KT 09/03 A3019 RMK A01 T00870033  RH  069%=      5-min Rain = 0
KPD3 060705Z 33021KT 09/03 A3019 RMK A01 T00870033  RH  069%=      5-min Rain = 0
KPD3 060706Z 33019G24KT 09/03 A302 RMK A01 T00870032  RH  069%=      5-min Rain = 0
KPD3 060707Z 33018KT 09/03 A302 RMK A01 T00870033  RH  069%=      5-min Rain = 0
KPD3 060708Z 33022KT 09/03 A3019 RMK A01 T00870033  RH  069%=      5-min Rain = 0
KPD3 060709Z 33018KT 09/03 A302 RMK A01 T00870033  RH  069%=      5-min Rain = 0
KPD3 060710Z 33021G27KT 09/03 A302 RMK A01 T00860033  RH  069%=      5-min Rain = 0
KPD3 060711Z 33023KT 09/03 A302 RMK A01 T00870033  RH  069%=      5-min Rain = 0
KPD3 060712Z 33018KT 09/03 A302 RMK A01 T00870033  RH  069%=      5-min Rain = 0
KPD3 060713Z 33019KT 09/03 A302 RMK A01 T00860033  RH  069%=      5-min Rain = 0
KPD3 060714Z 34019KT 09/03 A302 RMK A01 T00860033  RH  069%=      5-min Rain = 0
KPD3 060715Z 34017KT 09/03 A302 RMK A01 T00860033  RH  069%=      5-min Rain = 0
KPD3 060716Z 34018KT 09/03 A302 RMK A01 T00860033  RH  069%=      5-min Rain = 0
KPD3 060717Z 33016KT 09/03 A302 RMK A01 T00860033  RH  069%=      5-min Rain = 0
KPD3 060718Z 33019KT 09/03 A302 RMK A01 T00860033  RH  069%=      5-min Rain = 0
KPD3 060719Z 34017KT 09/03 A302 RMK A01 T00850033  RH  069%=      5-min Rain = 0
KPD3 060720Z 33017KT 09/03 A302 RMK A01 T00860033  RH  069%=      5-min Rain = 0
KPD3 060721Z 33019KT 09/03 A302 RMK A01 T00860033  RH  070%=      5-min Rain = 0
KPD3 060722Z 34017G22KT 09/03 A302 RMK A01 T00850033  RH  070%=      5-min Rain = 0
KPD3 060723Z 33016G22KT 09/03 A302 RMK A01 T00860033  RH  070%=      5-min Rain = 0
KPD3 060724Z 33020KT 09/03 A302 RMK A01 T00860033  RH  070%=      5-min Rain = 0
KPD3 060725Z 34020KT 09/03 A302 RMK A01 T00860033  RH  069%=      5-min Rain = 0
KPD3 060726Z 34016KT 09/03 A302 RMK A01 T00850033  RH  069%=      5-min Rain = 0
KPD3 060727Z 33018G24KT 09/03 A302 RMK A01 T00850033  RH  070%=      5-min Rain = 0
KPD3 060728Z 34019G24KT 09/03 A302 RMK A01 T00850033  RH  070%=      5-min Rain = 0
KPD3 060729Z 33019G24KT 09/03 A302 RMK A01 T00850033  RH  070%=      5-min Rain = 0
KPD3 060730Z 33019G24KT 08/03 A302 RMK A01 T00840032  RH  070%=      5-min Rain = 0
KPD3 060731Z 33021G26KT 08/03 A302 RMK A01 T00840032  RH  070%=      5-min Rain = 0
KPD3 060732Z 33018KT 08/03 A302 RMK A01 T00840032  RH  070%=      5-min Rain = 0
KPD3 060733Z 33016KT 08/03 A302 RMK A01 T00840032  RH  070%=      5-min Rain = 0
KPD3 060734Z 33024KT 08/03 A302 RMK A01 T00840032  RH  070%=      5-min Rain = 0
KPD3 060735Z 34019G25KT 08/03 A302 RMK A01 T00830031  RH  070%=      5-min Rain = 0
KPD3 060736Z 33015G20KT 08/03 A302 RMK A01 T00830031  RH  069%=      5-min Rain = 0
KPD3 060737Z 33020G25KT 08/03 A302 RMK A01 T00830031  RH  070%=      5-min Rain = 0
KPD3 060738Z 33017G22KT 08/03 A302 RMK A01 T00820031  RH  070%=      5-min Rain = 0
KPD3 060739Z 33017KT 08/03 A302 RMK A01 T00820030  RH  070%=      5-min Rain = 0
KPD3 060740Z 33016G22KT 08/03 A302 RMK A01 T00810031  RH  070%=      5-min Rain = 0
KPD3 060741Z 34018KT 08/03 A302 RMK A01 T00810031  RH  071%=      5-min Rain = 0
KPD3 060742Z 34018KT 08/03 A302 RMK A01 T00810031  RH  071%=      5-min Rain = 0
KPD3 060743Z 34021G26KT 08/03 A302 RMK A01 T00800030  RH  071%=      5-min Rain = 0
KPD3 060744Z 33016KT 08/03 A302 RMK A01 T00800029  RH  070%=      5-min Rain = 0
KPD3 060745Z 34016KT 08/03 A302 RMK A01 T00800029  RH  070%=      5-min Rain = 0
KPD3 060746Z 33017KT 08/03 A302 RMK A01 T00790030  RH  071%=      5-min Rain = 0
KPD3 060747Z 34015KT 08/03 A302 RMK A01 T00790030  RH  071%=      5-min Rain = 0
KPD3 060748Z 34016KT 08/03 A302 RMK A01 T00780029  RH  071%=      5-min Rain = 0
KPD3 060749Z 34014G19KT 08/03 A302 RMK A01 T00780030  RH  071%=      5-min Rain = 0
KPD3 060750Z 34013KT 08/03 A3021 RMK A01 T00770029  RH  072%=      5-min Rain = 0
KPD3 060751Z 34012KT 08/03 A3021 RMK A01 T00770029  RH  072%=      5-min Rain = 0
KPD3 060752Z 34014KT 08/03 A3021 RMK A01 T00760029  RH  072%=      5-min Rain = 0
KPD3 060753Z 34013KT 08/03 A3021 RMK A01 T00760029  RH  072%=      5-min Rain = 0
KPD3 060754Z 34013G18KT 08/03 A3021 RMK A01 T00760029  RH  072%=      5-min Rain = 0
KPD3 060755Z 34015KT 08/03 A3021 RMK A01 T00760029  RH  072%=      5-min Rain = 0
KPD3 060756Z 34014G19KT 08/03 A3021 RMK A01 T00760029  RH  072%=      5-min Rain = 0
KPD3 060757Z 34017KT 08/03 A3021 RMK A01 T00750028  RH  072%=      5-min Rain = 0
KPD3 060758Z 34014KT 08/03 A3021 RMK A01 T00750028  RH  072%=      5-min Rain = 0
KPD3 060759Z 34013KT 08/03 A3021 RMK A01 T00760028  RH  071%=      5-min Rain = 0
KPD3 060800Z 34014KT 08/03 A3021 RMK A01 T00750027  RH  072%=      5-min Rain = 0
KPD3 060801Z 34013KT 08/03 A3021 RMK A01 T00750027  RH  072%=      5-min Rain = 0
KPD3 060802Z 34013KT 08/03 A3021 RMK A01 T00750027  RH  072%=      5-min Rain = 0
KPD3 060803Z 35012KT 08/03 A3021 RMK A01 T00750027  RH  072%=      5-min Rain = 0
KPD3 060804Z 34012KT 07/03 A3021 RMK A01 T00740027  RH  072%=      5-min Rain = 0
KPD3 060805Z 34011KT 07/03 A3021 RMK A01 T00730027  RH  072%=      5-min Rain = 0
KPD3 060806Z 34012KT 07/03 A3021 RMK A01 T00730027  RH  073%=      5-min Rain = 0
KPD3 060807Z 34011KT 07/03 A3021 RMK A01 T00730027  RH  073%=      5-min Rain = 0
KPD3 060808Z 34014KT 07/03 A3021 RMK A01 T00720027  RH  073%=      5-min Rain = 0
KPD3 060809Z 34012KT 07/03 A3021 RMK A01 T00720027  RH  073%=      5-min Rain = 0
KPD3 060810Z 34012KT 07/03 A3021 RMK A01 T00720027  RH  073%=      5-min Rain = 0
KPD3 060811Z 34014KT 07/03 A3021 RMK A01 T00720027  RH  073%=      5-min Rain = 0
KPD3 060812Z 34011KT 07/03 A3021 RMK A01 T00720027  RH  073%=      5-min Rain = 0
KPD3 060813Z 34011KT 07/03 A3021 RMK A01 T00710027  RH  073%=      5-min Rain = 0
KPD3 060814Z 34012KT 07/03 A3021 RMK A01 T00710027  RH  073%=      5-min Rain = 0
KPD3 060815Z 34012KT 07/03 A3021 RMK A01 T00710026  RH  073%=      5-min Rain = 0
KPD3 060816Z 34011KT 07/03 A3021 RMK A01 T00710027  RH  073%=      5-min Rain = 0
KPD3 060817Z 34010KT 07/03 A3021 RMK A01 T00710027  RH  074%=      5-min Rain = 0
KPD3 060818Z 34011KT 07/03 A3021 RMK A01 T00700027  RH  074%=      5-min Rain = 0
KPD3 060819Z 34011KT 07/03 A3021 RMK A01 T00700027  RH  074%=      5-min Rain = 0
KPD3 060820Z 34011KT 07/03 A3021 RMK A01 T00700027  RH  074%=      5-min Rain = 0
KPD3 060821Z 34010KT 07/03 A3021 RMK A01 T00700027  RH  074%=      5-min Rain = 0
KPD3 060822Z 34011KT 07/03 A3021 RMK A01 T00710027  RH  074%=      5-min Rain = 0
KPD3 060823Z 34010KT 07/03 A3021 RMK A01 T00700026  RH  074%=      5-min Rain = 0
KPD3 060824Z 34011KT 07/03 A3021 RMK A01 T00700026  RH  074%=      5-min Rain = 0
KPD3 060825Z 33009KT 07/03 A3021 RMK A01 T00700026  RH  074%=      5-min Rain = 0
KPD3 060826Z 33013KT 07/03 A3021 RMK A01 T00700026  RH  074%=      5-min Rain = 0
KPD3 060827Z 33011KT 07/03 A3021 RMK A01 T00700026  RH  074%=      5-min Rain = 0
KPD3 060828Z 33010KT 07/03 A3021 RMK A01 T00700026  RH  074%=      5-min Rain = 0
KPD3 060829Z 34010KT 07/03 A3021 RMK A01 T00700026  RH  074%=      5-min Rain = 0
KPD3 060830Z 33009KT 07/03 A3021 RMK A01 T00690026  RH  074%=      5-min Rain = 0
KPD3 060831Z 33009KT 07/03 A3022 RMK A01 T00690025  RH  074%=      5-min Rain = 0
KPD3 060832Z 33010KT 07/03 A3022 RMK A01 T00690025  RH  074%=      5-min Rain = 0
KPD3 060833Z 33009KT 07/03 A3022 RMK A01 T00680025  RH  074%=      5-min Rain = 0
KPD3 060834Z 33009KT 07/03 A3022 RMK A01 T00680025  RH  074%=      5-min Rain = 0
KPD3 060835Z 33009KT 07/03 A3022 RMK A01 T00680025  RH  074%=      5-min Rain = 0
KPD3 060836Z 33010KT 07/03 A3022 RMK A01 T00680025  RH  074%=      5-min Rain = 0
KPD3 060837Z 33012KT 07/03 A3022 RMK A01 T00680025  RH  074%=      5-min Rain = 0
KPD3 060838Z 34009KT 07/03 A3022 RMK A01 T00680026  RH  074%=      5-min Rain = 0
KPD3 060839Z 34009KT 07/03 A3022 RMK A01 T00680025  RH  074%=      5-min Rain = 0
KPD3 060840Z 34009KT 07/03 A3022 RMK A01 T00680025  RH  074%=      5-min Rain = 0
KPD3 060841Z 33010KT 07/03 A3021 RMK A01 T00670025  RH  074%=      5-min Rain = 0
KPD3 060842Z 34010KT 07/03 A3022 RMK A01 T00670025  RH  075%=      5-min Rain = 0
KPD3 060843Z 33010KT 07/03 A3022 RMK A01 T00660025  RH  075%=      5-min Rain = 0
KPD3 060844Z 33011KT 07/03 A3021 RMK A01 T00660025  RH  075%=      5-min Rain = 0
KPD3 060845Z 33012KT 07/03 A3022 RMK A01 T00660025  RH  075%=      5-min Rain = 0
KPD3 060846Z 33011KT 07/03 A3022 RMK A01 T00670025  RH  075%=      5-min Rain = 0
KPD3 060847Z 33011KT 07/03 A3022 RMK A01 T00670025  RH  075%=      5-min Rain = 0
KPD3 060848Z 33010KT 07/03 A3022 RMK A01 T00660025  RH  075%=      5-min Rain = 0
KPD3 060849Z 33011KT 07/03 A3022 RMK A01 T00660025  RH  075%=      5-min Rain = 0
KPD3 060850Z 33013KT 07/03 A3022 RMK A01 T00660025  RH  075%=      5-min Rain = 0
KPD3 060851Z 33012KT 07/03 A3022 RMK A01 T00660025  RH  075%=      5-min Rain = 0
KPD3 060852Z 33011KT 07/03 A3022 RMK A01 T00660025  RH  075%=      5-min Rain = 0
KPD3 060853Z 33011KT 07/03 A3022 RMK A01 T00660025  RH  075%=      5-min Rain = 0
KPD3 060854Z 33013KT 07/03 A3022 RMK A01 T00650025  RH  075%=      5-min Rain = 0
KPD3 060855Z 33012KT 07/03 A3022 RMK A01 T00650025  RH  075%=      5-min Rain = 0
KPD3 060856Z 33011KT 07/03 A3022 RMK A01 T00660025  RH  075%=      5-min Rain = 0
KPD3 060857Z 33010KT 07/03 A3022 RMK A01 T00660025  RH  075%=      5-min Rain = 0
KPD3 060858Z 33011KT 07/02 A3022 RMK A01 T00650024  RH  075%=      5-min Rain = 0
KPD3 060859Z 33011KT 06/02 A3022 RMK A01 T00640024  RH  076%=      5-min Rain = 0
KPD3 060900Z 33011KT 06/02 A3022 RMK A01 T00640024  RH  076%=      5-min Rain = 0
KPD3 060901Z 33012KT 06/02 A3022 RMK A01 T00640024  RH  076%=      5-min Rain = 0
KPD3 060902Z 33013KT 06/02 A3022 RMK A01 T00640024  RH  076%=      5-min Rain = 0
KPD3 060903Z 34011KT 06/02 A3022 RMK A01 T00640024  RH  076%=      5-min Rain = 0
KPD3 060904Z 33012KT 06/02 A3022 RMK A01 T00640024  RH  076%=      5-min Rain = 0
KPD3 060905Z 34011KT 06/02 A3022 RMK A01 T00640024  RH  076%=      5-min Rain = 0
KPD3 060906Z 33010KT 06/02 A3023 RMK A01 T00640024  RH  076%=      5-min Rain = 0
KPD3 060907Z 34010KT 06/02 A3023 RMK A01 T00640024  RH  076%=      5-min Rain = 0
KPD3 060908Z 34010KT 06/02 A3023 RMK A01 T00640024  RH  076%=      5-min Rain = 0
KPD3 060909Z 34011KT 06/02 A3023 RMK A01 T00630024  RH  076%=      5-min Rain = 0
KPD3 060910Z 34011KT 06/02 A3023 RMK A01 T00630024  RH  076%=      5-min Rain = 0
KPD3 060911Z 33011KT 06/02 A3023 RMK A01 T00630024  RH  076%=      5-min Rain = 0
KPD3 060912Z 34011KT 06/02 A3023 RMK A01 T00630024  RH  076%=      5-min Rain = 0
KPD3 060913Z 34010KT 06/02 A3023 RMK A01 T00630024  RH  076%=      5-min Rain = 0
KPD3 060914Z 34013KT 06/02 A3023 RMK A01 T00630024  RH  076%=      5-min Rain = 0
KPD3 060915Z 34011KT 06/02 A3023 RMK A01 T00630024  RH  076%=      5-min Rain = 0
KPD3 060916Z 34011KT 06/02 A3023 RMK A01 T00630024  RH  076%=      5-min Rain = 0
KPD3 060917Z 34011KT 06/02 A3023 RMK A01 T00640024  RH  076%=      5-min Rain = 0
KPD3 060918Z 33012KT 06/02 A3023 RMK A01 T00630024  RH  076%=      5-min Rain = 0
KPD3 060919Z 34011KT 06/02 A3023 RMK A01 T00630024  RH  076%=      5-min Rain = 0
KPD3 060920Z 33013KT 06/02 A3023 RMK A01 T00630024  RH  076%=      5-min Rain = 0
KPD3 060921Z 34012KT 06/02 A3023 RMK A01 T00630024  RH  076%=      5-min Rain = 0
KPD3 060922Z 33012KT 06/02 A3023 RMK A01 T00630023  RH  076%=      5-min Rain = 0
KPD3 060923Z 34012KT 06/02 A3023 RMK A01 T00630023  RH  076%=      5-min Rain = 0
KPD3 060924Z 34010KT 06/02 A3023 RMK A01 T00630023  RH  076%=      5-min Rain = 0
KPD3 060925Z 34010KT 06/02 A3024 RMK A01 T00620023  RH  076%=      5-min Rain = 0
KPD3 060926Z 34010KT 06/02 A3024 RMK A01 T00620023  RH  076%=      5-min Rain = 0
KPD3 060927Z 34012KT 06/02 A3024 RMK A01 T00610023  RH  076%=      5-min Rain = 0
KPD3 060928Z 34013KT 06/02 A3024 RMK A01 T00610023  RH  076%=      5-min Rain = 0
KPD3 060929Z 34012KT 06/02 A3024 RMK A01 T00620023  RH  076%=      5-min Rain = 0
KPD3 060930Z 34011KT 06/02 A3024 RMK A01 T00630023  RH  076%=      5-min Rain = 0
KPD3 060931Z 34012KT 06/02 A3024 RMK A01 T00620023  RH  076%=      5-min Rain = 0
KPD3 060932Z 34010KT 06/02 A3024 RMK A01 T00620023  RH  076%=      5-min Rain = 0
KPD3 060933Z 34012KT 06/02 A3024 RMK A01 T00620022  RH  076%=      5-min Rain = 0
KPD3 060934Z 34011KT 06/02 A3024 RMK A01 T00620022  RH  076%=      5-min Rain = 0
KPD3 060935Z 34012KT 06/02 A3024 RMK A01 T00610022  RH  076%=      5-min Rain = 0
KPD3 060936Z 34013KT 06/02 A3024 RMK A01 T00610023  RH  076%=      5-min Rain = 0
KPD3 060937Z 34012KT 06/02 A3024 RMK A01 T00610022  RH  076%=      5-min Rain = 0
KPD3 060938Z 34012KT 06/02 A3024 RMK A01 T00610022  RH  076%=      5-min Rain = 0
KPD3 060939Z 34012KT 06/02 A3024 RMK A01 T00610022  RH  076%=      5-min Rain = 0
KPD3 060940Z 34012KT 06/02 A3024 RMK A01 T00610022  RH  076%=      5-min Rain = 0
KPD3 060941Z 34011KT 06/02 A3024 RMK A01 T00610022  RH  076%=      5-min Rain = 0
KPD3 060942Z 34013KT 06/02 A3024 RMK A01 T00600022  RH  076%=      5-min Rain = 0
KPD3 060943Z 34012KT 06/02 A3024 RMK A01 T00600022  RH  076%=      5-min Rain = 0
KPD3 060944Z 33011KT 06/02 A3024 RMK A01 T00600022  RH  077%=      5-min Rain = 0
KPD3 060945Z 34015KT 06/02 A3024 RMK A01 T00590021  RH  077%=      5-min Rain = 0
KPD3 060946Z 33013KT 06/02 A3024 RMK A01 T00590022  RH  077%=      5-min Rain = 0
KPD3 060947Z 33012KT 06/02 A3024 RMK A01 T00600022  RH  077%=      5-min Rain = 0
KPD3 060948Z 33014KT 06/02 A3024 RMK A01 T00600022  RH  076%=      5-min Rain = 0
KPD3 060949Z 33012KT 06/02 A3024 RMK A01 T00600022  RH  076%=      5-min Rain = 0
KPD3 060950Z 33013KT 06/02 A3024 RMK A01 T00590021  RH  077%=      5-min Rain = 0
KPD3 060951Z 33013KT 06/02 A3024 RMK A01 T00590021  RH  077%=      5-min Rain = 0
KPD3 060952Z 33013KT 06/02 A3024 RMK A01 T00590021  RH  077%=      5-min Rain = 0
KPD3 060953Z 33015KT 06/02 A3024 RMK A01 T00590021  RH  077%=      5-min Rain = 0
KPD3 060954Z 33016KT 06/02 A3024 RMK A01 T00590021  RH  077%=      5-min Rain = 0
KPD3 060955Z 33015KT 06/02 A3024 RMK A01 T00590021  RH  076%=      5-min Rain = 0
KPD3 060956Z 33013KT 06/02 A3024 RMK A01 T00590021  RH  076%=      5-min Rain = 0
KPD3 060957Z 33015KT 06/02 A3024 RMK A01 T00590021  RH  076%=      5-min Rain = 0
KPD3 060958Z 33014KT 06/02 A3024 RMK A01 T00590021  RH  076%=      5-min Rain = 0
KPD3 060959Z 33014KT 06/02 A3024 RMK A01 T00590021  RH  076%=      5-min Rain = 0
KPD3 061000Z 33014KT 06/02 A3024 RMK A01 T00590020  RH  076%=      5-min Rain = 0
KPD3 061001Z 34012KT 06/02 A3024 RMK A01 T00590020  RH  076%=      5-min Rain = 0
KPD3 061002Z 34013KT 06/02 A3024 RMK A01 T00590020  RH  076%=      5-min Rain = 0
KPD3 061003Z 33013KT 06/02 A3024 RMK A01 T00590020  RH  076%=      5-min Rain = 0
KPD3 061004Z 34013KT 06/02 A3024 RMK A01 T00590020  RH  076%=      5-min Rain = 0
KPD3 061005Z 33013KT 06/02 A3024 RMK A01 T00590020  RH  076%=      5-min Rain = 0
KPD3 061006Z 33013KT 06/02 A3024 RMK A01 T00590019  RH  076%=      5-min Rain = 0
KPD3 061007Z 32012KT 06/02 A3024 RMK A01 T00590019  RH  076%=      5-min Rain = 0
KPD3 061008Z 33014KT 06/02 A3024 RMK A01 T00590019  RH  076%=      5-min Rain = 0
KPD3 061009Z 33013KT 06/02 A3024 RMK A01 T00580019  RH  076%=      5-min Rain = 0
KPD3 061010Z 33013KT 06/02 A3024 RMK A01 T00580019  RH  076%=      5-min Rain = 0
KPD3 061011Z 33012KT 06/02 A3024 RMK A01 T00580019  RH  076%=      5-min Rain = 0
KPD3 061012Z 33012KT 06/02 A3024 RMK A01 T00580019  RH  076%=      5-min Rain = 0
KPD3 061013Z 33012KT 06/02 A3024 RMK A01 T00580018  RH  076%=      5-min Rain = 0
KPD3 061014Z 33012KT 06/02 A3024 RMK A01 T00580019  RH  076%=      5-min Rain = 0
KPD3 061015Z 33013KT 06/02 A3024 RMK A01 T00580018  RH  076%=      5-min Rain = 0
KPD3 061016Z 33013KT 06/02 A3024 RMK A01 T00570018  RH  076%=      5-min Rain = 0
KPD3 061017Z 34013KT 06/02 A3024 RMK A01 T00570018  RH  076%=      5-min Rain = 0
KPD3 061018Z 34013KT 06/02 A3024 RMK A01 T00570018  RH  076%=      5-min Rain = 0
KPD3 061019Z 33011KT 06/02 A3024 RMK A01 T00580018  RH  076%=      5-min Rain = 0
KPD3 061020Z 34012KT 06/02 A3024 RMK A01 T00570018  RH  076%=      5-min Rain = 0
KPD3 061021Z 33013KT 06/02 A3024 RMK A01 T00570018  RH  076%=      5-min Rain = 0
KPD3 061022Z 33012KT 06/02 A3024 RMK A01 T00570018  RH  076%=      5-min Rain = 0
KPD3 061023Z 33012KT 06/02 A3024 RMK A01 T00580018  RH  075%=      5-min Rain = 0
KPD3 061024Z 33010KT 06/02 A3024 RMK A01 T00570018  RH  076%=      5-min Rain = 0
KPD3 061025Z 33010KT 06/02 A3024 RMK A01 T00570018  RH  076%=      5-min Rain = 0
KPD3 061026Z 33011KT 06/02 A3024 RMK A01 T00560017  RH  076%=      5-min Rain = 0
KPD3 061027Z 33011KT 06/02 A3024 RMK A01 T00560018  RH  076%=      5-min Rain = 0
KPD3 061028Z 33013KT 06/02 A3024 RMK A01 T00560017  RH  076%=      5-min Rain = 0
KPD3 061029Z 33012KT 06/02 A3024 RMK A01 T00570017  RH  076%=      5-min Rain = 0
KPD3 061030Z 33011KT 06/02 A3024 RMK A01 T00570017  RH  076%=      5-min Rain = 0
KPD3 061031Z 33010KT 06/02 A3025 RMK A01 T00570017  RH  076%=      5-min Rain = 0
KPD3 061032Z 33010KT 06/02 A3025 RMK A01 T00560017  RH  076%=      5-min Rain = 0
KPD3 061033Z 33010KT 06/02 A3025 RMK A01 T00560017  RH  076%=      5-min Rain = 0
KPD3 061034Z 33010KT 06/02 A3025 RMK A01 T00560017  RH  076%=      5-min Rain = 0
KPD3 061035Z 33009KT 06/02 A3025 RMK A01 T00560017  RH  076%=      5-min Rain = 0
KPD3 061036Z 34010KT 06/02 A3025 RMK A01 T00550016  RH  076%=      5-min Rain = 0
KPD3 061037Z 34011KT 06/02 A3025 RMK A01 T00550016  RH  076%=      5-min Rain = 0
KPD3 061038Z 34010KT 06/02 A3025 RMK A01 T00550017  RH  076%=      5-min Rain = 0
KPD3 061039Z 34011KT 06/02 A3025 RMK A01 T00550017  RH  076%=      5-min Rain = 0
KPD3 061040Z 34010KT 06/02 A3025 RMK A01 T00550017  RH  076%=      5-min Rain = 0
KPD3 061041Z 34012KT 06/02 A3025 RMK A01 T00550016  RH  076%=      5-min Rain = 0
KPD3 061042Z 34009KT 06/02 A3025 RMK A01 T00550016  RH  076%=      5-min Rain = 0
KPD3 061043Z 34011KT 06/02 A3025 RMK A01 T00550016  RH  076%=      5-min Rain = 0
KPD3 061044Z 34012KT 06/02 A3024 RMK A01 T00550016  RH  076%=      5-min Rain = 0
KPD3 061045Z 35013KT 06/02 A3024 RMK A01 T00550016  RH  076%=      5-min Rain = 0
KPD3 061046Z 35012KT 06/02 A3024 RMK A01 T00550016  RH  076%=      5-min Rain = 0
KPD3 061047Z 35011KT 06/02 A3024 RMK A01 T00560016  RH  076%=      5-min Rain = 0
KPD3 061048Z 34013KT 06/02 A3024 RMK A01 T00550016  RH  076%=      5-min Rain = 0
KPD3 061049Z 34015KT 06/02 A3024 RMK A01 T00550016  RH  076%=      5-min Rain = 0
KPD3 061050Z 34015KT 06/02 A3024 RMK A01 T00560016  RH  075%=      5-min Rain = 0
KPD3 061051Z 34012KT 06/02 A3025 RMK A01 T00570016  RH  075%=      5-min Rain = 0
KPD3 061052Z 34012KT 06/02 A3025 RMK A01 T00560016  RH  075%=      5-min Rain = 0
KPD3 061053Z 34011KT 06/02 A3025 RMK A01 T00560015  RH  075%=      5-min Rain = 0
KPD3 061054Z 34013KT 06/02 A3025 RMK A01 T00550015  RH  075%=      5-min Rain = 0
KPD3 061055Z 34015KT 06/02 A3025 RMK A01 T00550015  RH  075%=      5-min Rain = 0
KPD3 061056Z 34013KT 06/02 A3025 RMK A01 T00560015  RH  075%=      5-min Rain = 0
KPD3 061057Z 34013G19KT 06/02 A3025 RMK A01 T00560015  RH  075%=      5-min Rain = 0
KPD3 061058Z 33016KT 06/02 A3025 RMK A01 T00560015  RH  075%=      5-min Rain = 0
KPD3 061059Z 34015KT 06/02 A3025 RMK A01 T00560015  RH  075%=      5-min Rain = 0
KPD3 061100Z 33014G20KT 06/02 A3025 RMK A01 T00570015  RH  074%=      5-min Rain = 0
KPD3 061101Z 33016G21KT 06/01 A3025 RMK A01 T00560014  RH  074%=      5-min Rain = 0
KPD3 061102Z 33016KT 06/02 A3025 RMK A01 T00570015  RH  074%=      5-min Rain = 0
KPD3 061103Z 33016KT 06/02 A3025 RMK A01 T00570015  RH  074%=      5-min Rain = 0
KPD3 061104Z 33016KT 06/02 A3025 RMK A01 T00570015  RH  074%=      5-min Rain = 0
KPD3 061105Z 34017KT 06/02 A3025 RMK A01 T00560015  RH  074%=      5-min Rain = 0
KPD3 061106Z 33017KT 06/02 A3025 RMK A01 T00560015  RH  075%=      5-min Rain = 0
KPD3 061107Z 33017KT 06/02 A3025 RMK A01 T00560015  RH  075%=      5-min Rain = 0
KPD3 061108Z 34015KT 06/02 A3025 RMK A01 T00560015  RH  075%=      5-min Rain = 0
KPD3 061109Z 34016KT 06/02 A3025 RMK A01 T00560015  RH  075%=      5-min Rain = 0
KPD3 061110Z 33014KT 06/02 A3025 RMK A01 T00550015  RH  075%=      5-min Rain = 0
KPD3 061111Z 34014KT 06/01 A3025 RMK A01 T00550014  RH  075%=      5-min Rain = 0
KPD3 061112Z 34015KT 06/02 A3025 RMK A01 T00550015  RH  075%=      5-min Rain = 0
KPD3 061113Z 34018KT 06/02 A3025 RMK A01 T00550015  RH  075%=      5-min Rain = 0
KPD3 061114Z 34015KT 06/02 A3025 RMK A01 T00560015  RH  075%=      5-min Rain = 0
KPD3 061115Z 34016KT 06/02 A3025 RMK A01 T00560015  RH  075%=      5-min Rain = 0
KPD3 061116Z 34013KT 06/02 A3025 RMK A01 T00560015  RH  075%=      5-min Rain = 0
KPD3 061117Z 34014KT 06/02 A3025 RMK A01 T00550015  RH  075%=      5-min Rain = 0
KPD3 061118Z 34014KT 05/01 A3025 RMK A01 T00540014  RH  075%=      5-min Rain = 0
KPD3 061119Z 34016KT 05/01 A3025 RMK A01 T00540014  RH  076%=      5-min Rain = 0
KPD3 061120Z 34015KT 05/02 A3025 RMK A01 T00540015  RH  076%=      5-min Rain = 0
KPD3 061121Z 34014G19KT 05/01 A3025 RMK A01 T00540014  RH  075%=      5-min Rain = 0
KPD3 061122Z 34015KT 05/01 A3026 RMK A01 T00540014  RH  075%=      5-min Rain = 0
KPD3 061123Z 34015G20KT 05/02 A3026 RMK A01 T00540015  RH  075%=      5-min Rain = 0
KPD3 061124Z 34016KT 06/02 A3026 RMK A01 T00550015  RH  075%=      5-min Rain = 0
KPD3 061125Z 34017KT 05/01 A3026 RMK A01 T00540014  RH  075%=      5-min Rain = 0
KPD3 061126Z 34016G21KT 05/01 A3026 RMK A01 T00540014  RH  075%=      5-min Rain = 0
KPD3 061127Z 34016KT 05/01 A3026 RMK A01 T00540014  RH  075%=      5-min Rain = 0
KPD3 061128Z 34013KT 05/01 A3026 RMK A01 T00540014  RH  075%=      5-min Rain = 0
KPD3 061129Z 33014KT 05/01 A3026 RMK A01 T00540013  RH  075%=      5-min Rain = 0
KPD3 061130Z 34013KT 05/01 A3026 RMK A01 T00540013  RH  075%=      5-min Rain = 0
KPD3 061131Z 33015KT 05/01 A3026 RMK A01 T00530013  RH  075%=      5-min Rain = 0
KPD3 061132Z 34015KT 05/01 A3026 RMK A01 T00530013  RH  075%=      5-min Rain = 0
KPD3 061133Z 34015KT 05/01 A3026 RMK A01 T00530013  RH  075%=      5-min Rain = 0
KPD3 061134Z 34014G19KT 05/01 A3026 RMK A01 T00530013  RH  075%=      5-min Rain = 0
KPD3 061135Z 33016KT 05/01 A3026 RMK A01 T00540013  RH  075%=      5-min Rain = 0
KPD3 061136Z 33015KT 05/01 A3027 RMK A01 T00530013  RH  075%=      5-min Rain = 0
KPD3 061137Z 34017KT 05/01 A3027 RMK A01 T00530013  RH  075%=      5-min Rain = 0
KPD3 061138Z 33016KT 05/01 A3027 RMK A01 T00530012  RH  075%=      5-min Rain = 0
KPD3 061139Z 34018KT 05/01 A3026 RMK A01 T00530013  RH  075%=      5-min Rain = 0
KPD3 061140Z 34016KT 05/01 A3027 RMK A01 T00530012  RH  075%=      5-min Rain = 0
KPD3 061141Z 34017KT 05/01 A3026 RMK A01 T00530012  RH  075%=      5-min Rain = 0
KPD3 061142Z 34017KT 05/01 A3026 RMK A01 T00530013  RH  075%=      5-min Rain = 0
KPD3 061143Z 34017KT 05/01 A3026 RMK A01 T00530012  RH  075%=      5-min Rain = 0
KPD3 061144Z 34014KT 05/01 A3026 RMK A01 T00530012  RH  075%=      5-min Rain = 0
KPD3 061145Z 34015KT 05/01 A3027 RMK A01 T00530012  RH  075%=      5-min Rain = 0
KPD3 061146Z 33016G21KT 05/01 A3027 RMK A01 T00520012  RH  075%=      5-min Rain = 0
KPD3 061147Z 33017KT 05/01 A3027 RMK A01 T00520012  RH  075%=      5-min Rain = 0
KPD3 061148Z 33016KT 05/01 A3027 RMK A01 T00520012  RH  075%=      5-min Rain = 0
KPD3 061149Z 34015KT 05/01 A3027 RMK A01 T00520012  RH  076%=      5-min Rain = 0
KPD3 061150Z 34016KT 05/01 A3027 RMK A01 T00510012  RH  076%=      5-min Rain = 0
KPD3 061151Z 34018KT 05/01 A3027 RMK A01 T00510012  RH  076%=      5-min Rain = 0
KPD3 061152Z 34015KT 05/01 A3027 RMK A01 T00510012  RH  076%=      5-min Rain = 0
KPD3 061153Z 34016KT 05/01 A3027 RMK A01 T00510012  RH  076%=      5-min Rain = 0
KPD3 061154Z 33016KT 05/01 A3027 RMK A01 T00510012  RH  076%=      5-min Rain = 0
KPD3 061155Z 34017KT 05/01 A3026 RMK A01 T00500011  RH  076%=      5-min Rain = 0
KPD3 061156Z 34018KT 05/01 A3026 RMK A01 T00500012  RH  076%=      5-min Rain = 0
KPD3 061157Z 34017G24KT 05/01 A3026 RMK A01 T00500011  RH  076%=      5-min Rain = 0
KPD3 061158Z 34018G23KT 05/01 A3026 RMK A01 T00500011  RH  076%=      5-min Rain = 0
KPD3 061159Z 34015KT 05/01 A3026 RMK A01 T00500010  RH  076%=      5-min Rain = 0
KPD3 061200Z 34014G21KT 05/01 A3026 RMK A01 T00500011  RH  076%=      5-min Rain = 0
KPD3 061201Z 34015G20KT 05/01 A3026 RMK A01 T00490010  RH  076%=      5-min Rain = 0
KPD3 061202Z 34016KT 05/01 A3027 RMK A01 T00490010  RH  076%=      5-min Rain = 0
KPD3 061203Z 34016KT 05/01 A3027 RMK A01 T00490011  RH  076%=      5-min Rain = 0
KPD3 061204Z 34015KT 05/01 A3027 RMK A01 T00480010  RH  076%=      5-min Rain = 0
KPD3 061205Z 34016KT 05/01 A3027 RMK A01 T00480010  RH  076%=      5-min Rain = 0
KPD3 061206Z 33015G20KT 05/01 A3027 RMK A01 T00480010  RH  076%=      5-min Rain = 0
KPD3 061207Z 34016KT 05/01 A3027 RMK A01 T00480009  RH  076%=      5-min Rain = 0
KPD3 061208Z 34014G20KT 05/01 A3027 RMK A01 T00470009  RH  076%=      5-min Rain = 0
KPD3 061209Z 34017KT 05/01 A3027 RMK A01 T00470009  RH  076%=      5-min Rain = 0
KPD3 061210Z 34015KT 05/01 A3027 RMK A01 T00470009  RH  076%=      5-min Rain = 0
KPD3 061211Z 34014G19KT 05/01 A3027 RMK A01 T00470009  RH  076%=      5-min Rain = 0
KPD3 061212Z 34017KT 05/01 A3027 RMK A01 T00460008  RH  076%=      5-min Rain = 0
KPD3 061213Z 34014KT 05/01 A3027 RMK A01 T00470008  RH  076%=      5-min Rain = 0
KPD3 061214Z 33014KT 05/01 A3028 RMK A01 T00460008  RH  076%=      5-min Rain = 0
KPD3 061215Z 34013G18KT 05/01 A3028 RMK A01 T00460008  RH  076%=      5-min Rain = 0
KPD3 061216Z 33015KT 05/01 A3028 RMK A01 T00460008  RH  077%=      5-min Rain = 0
KPD3 061217Z 34017KT 05/01 A3028 RMK A01 T00460008  RH  076%=      5-min Rain = 0
KPD3 061218Z 34014KT 05/01 A3028 RMK A01 T00460008  RH  076%=      5-min Rain = 0
KPD3 061219Z 33014KT 05/01 A3028 RMK A01 T00460008  RH  076%=      5-min Rain = 0
KPD3 061220Z 33015KT 05/01 A3028 RMK A01 T00450007  RH  077%=      5-min Rain = 0
KPD3 061221Z 34016KT 04/01 A3028 RMK A01 T00440007  RH  077%=      5-min Rain = 0
KPD3 061222Z 33014KT 04/01 A3028 RMK A01 T00440007  RH  077%=      5-min Rain = 0
KPD3 061223Z 33016KT 04/01 A3029 RMK A01 T00440007  RH  077%=      5-min Rain = 0
KPD3 061224Z 33016KT 04/01 A3028 RMK A01 T00440007  RH  077%=      5-min Rain = 0
KPD3 061225Z 33015KT 04/01 A3029 RMK A01 T00440007  RH  077%=      5-min Rain = 0
KPD3 061226Z 33015KT 04/01 A3029 RMK A01 T00440007  RH  077%=      5-min Rain = 0
KPD3 061227Z 34014KT 04/01 A3029 RMK A01 T00440007  RH  077%=      5-min Rain = 0
KPD3 061228Z 33013KT 04/01 A3029 RMK A01 T00430006  RH  077%=      5-min Rain = 0
KPD3 061229Z 33015G20KT 04/01 A3029 RMK A01 T00430006  RH  077%=      5-min Rain = 0
KPD3 061230Z 33018KT 04/01 A3029 RMK A01 T00430007  RH  077%=      5-min Rain = 0
KPD3 061231Z 33013KT 04/01 A3029 RMK A01 T00430006  RH  077%=      5-min Rain = 0
KPD3 061232Z 33015KT 04/01 A3029 RMK A01 T00430006  RH  077%=      5-min Rain = 0
KPD3 061233Z 33015G21KT 04/01 A3029 RMK A01 T00430006  RH  077%=      5-min Rain = 0
KPD3 061234Z 33014G19KT 04/01 A303 RMK A01 T00430006  RH  077%=      5-min Rain = 0
KPD3 061235Z 33015KT 04/01 A303 RMK A01 T00420005  RH  077%=      5-min Rain = 0
KPD3 061236Z 33016KT 04/01 A303 RMK A01 T00420005  RH  077%=      5-min Rain = 0
KPD3 061237Z 33016KT 04/01 A303 RMK A01 T00420005  RH  077%=      5-min Rain = 0
KPD3 061238Z 33015KT 04/01 A3029 RMK A01 T00420005  RH  077%=      5-min Rain = 0
KPD3 061239Z 33015KT 04/01 A303 RMK A01 T00410005  RH  077%=      5-min Rain = 0
KPD3 061240Z 33017KT 04/01 A303 RMK A01 T00410005  RH  077%=      5-min Rain = 0
KPD3 061241Z 33019KT 04/01 A3029 RMK A01 T00410005  RH  077%=      5-min Rain = 0
KPD3 061242Z 33017KT 04/01 A303 RMK A01 T00420005  RH  077%=      5-min Rain = 0
KPD3 061243Z 33014G19KT 04/01 A303 RMK A01 T00420005  RH  077%=      5-min Rain = 0
KPD3 061244Z 33012G17KT 04/01 A303 RMK A01 T00410005  RH  077%=      5-min Rain = 0
KPD3 061245Z 33015KT 04/00 A303 RMK A01 T00400004  RH  077%=      5-min Rain = 0
KPD3 061246Z 34013G18KT 04/01 A303 RMK A01 T00400005  RH  078%=      5-min Rain = 0
KPD3 061247Z 34015G20KT 04/00 A303 RMK A01 T00400004  RH  078%=      5-min Rain = 0
KPD3 061248Z 33014KT 04/00 A303 RMK A01 T00400004  RH  078%=      5-min Rain = 0
KPD3 061249Z 33018KT 04/00 A303 RMK A01 T00400004  RH  078%=      5-min Rain = 0
KPD3 061250Z 33016KT 04/00 A303 RMK A01 T00400004  RH  078%=      5-min Rain = 0
KPD3 061251Z 33015KT 04/00 A303 RMK A01 T00400004  RH  077%=      5-min Rain = 0
KPD3 061252Z 33015G20KT 04/00 A303 RMK A01 T00400004  RH  077%=      5-min Rain = 0
KPD3 061253Z 34016KT 04/00 A303 RMK A01 T00400004  RH  077%=      5-min Rain = 0
KPD3 061254Z 33013G19KT 04/00 A3031 RMK A01 T00390004  RH  077%=      5-min Rain = 0
KPD3 061255Z 33015KT 04/00 A3031 RMK A01 T00400004  RH  077%=      5-min Rain = 0
KPD3 061256Z 33017KT 04/00 A3031 RMK A01 T00390003  RH  078%=      5-min Rain = 0
KPD3 061257Z 33014KT 04/00 A3031 RMK A01 T00390004  RH  078%=      5-min Rain = 0
KPD3 061258Z 33016KT 04/00 A3031 RMK A01 T00390003  RH  078%=      5-min Rain = 0
KPD3 061259Z 32015KT 04/00 A3031 RMK A01 T00390004  RH  078%=      5-min Rain = 0
KPD3 061300Z 33013KT 04/00 A3031 RMK A01 T00390004  RH  078%=      5-min Rain = 0
KPD3 061301Z 33016KT 04/00 A3031 RMK A01 T00390003  RH  078%=      5-min Rain = 0
KPD3 061302Z 33017KT 04/00 A3031 RMK A01 T00390003  RH  078%=      5-min Rain = 0
KPD3 061303Z 33016KT 04/00 A3032 RMK A01 T00390003  RH  078%=      5-min Rain = 0
KPD3 061304Z 33016KT 04/00 A3032 RMK A01 T00390003  RH  077%=      5-min Rain = 0
KPD3 061305Z 33014KT 04/00 A3032 RMK A01 T00390003  RH  077%=      5-min Rain = 0
KPD3 061306Z 32015KT 04/00 A3032 RMK A01 T00380003  RH  078%=      5-min Rain = 0
KPD3 061307Z 33015KT 04/00 A3032 RMK A01 T00380003  RH  078%=      5-min Rain = 0
KPD3 061308Z 33016KT 04/00 A3032 RMK A01 T00380003  RH  078%=      5-min Rain = 0
KPD3 061309Z 32014KT 04/00 A3032 RMK A01 T00380003  RH  078%=      5-min Rain = 0
KPD3 061310Z 32019KT 04/00 A3032 RMK A01 T00380003  RH  078%=      5-min Rain = 0
KPD3 061311Z 32015KT 04/00 A3032 RMK A01 T00380003  RH  078%=      5-min Rain = 0
KPD3 061312Z 33015KT 04/00 A3032 RMK A01 T00380003  RH  078%=      5-min Rain = 0
KPD3 061313Z 33017KT 04/00 A3032 RMK A01 T00370002  RH  078%=      5-min Rain = 0
KPD3 061314Z 33016KT 04/00 A3032 RMK A01 T00370003  RH  078%=      5-min Rain = 0
KPD3 061315Z 33016KT 04/00 A3032 RMK A01 T00370003  RH  078%=      5-min Rain = 0
KPD3 061316Z 33014G21KT 04/00 A3032 RMK A01 T00370002  RH  078%=      5-min Rain = 0
KPD3 061317Z 33017G22KT 04/00 A3032 RMK A01 T00370002  RH  078%=      5-min Rain = 0
KPD3 061318Z 33015G20KT 04/00 A3032 RMK A01 T00370002  RH  078%=      5-min Rain = 0
KPD3 061319Z 33016KT 04/00 A3032 RMK A01 T00370002  RH  078%=      5-min Rain = 0
KPD3 061320Z 33016KT 04/00 A3032 RMK A01 T00370002  RH  078%=      5-min Rain = 0
KPD3 061321Z 33015KT 04/00 A3032 RMK A01 T00370002  RH  078%=      5-min Rain = 0
KPD3 061322Z 33017KT 04/00 A3033 RMK A01 T00370002  RH  078%=      5-min Rain = 0
KPD3 061323Z 33016KT 04/00 A3033 RMK A01 T00360002  RH  078%=      5-min Rain = 0
KPD3 061324Z 33016KT 04/00 A3033 RMK A01 T00370002  RH  078%=      5-min Rain = 0
KPD3 061325Z 34017KT 04/00 A3033 RMK A01 T00370002  RH  078%=      5-min Rain = 0
KPD3 061326Z 33016KT 04/00 A3033 RMK A01 T00360002  RH  078%=      5-min Rain = 0
KPD3 061327Z 34015KT 04/00 A3033 RMK A01 T00360002  RH  078%=      5-min Rain = 0
KPD3 061328Z 34013KT 04/00 A3033 RMK A01 T00360002  RH  078%=      5-min Rain = 0
KPD3 061329Z 34018KT 04/00 A3033 RMK A01 T00350001  RH  078%=      5-min Rain = 0
KPD3 061330Z 34014KT 04/00 A3033 RMK A01 T00350001  RH  078%=      5-min Rain = 0
KPD3 061331Z 34019KT 04/00 A3033 RMK A01 T00360002  RH  078%=      5-min Rain = 0
KPD3 061332Z 34016KT 04/00 A3033 RMK A01 T00360002  RH  078%=      5-min Rain = 0
KPD3 061333Z 34016KT 04/00 A3033 RMK A01 T00360002  RH  078%=      5-min Rain = 0
KPD3 061334Z 34017KT 04/00 A3033 RMK A01 T00360002  RH  078%=      5-min Rain = 0
KPD3 061335Z 34017KT 04/00 A3033 RMK A01 T00360002  RH  078%=      5-min Rain = 0
KPD3 061336Z 34017KT 04/00 A3033 RMK A01 T00360002  RH  078%=      5-min Rain = 0
KPD3 061337Z 34015G21KT 04/00 A3033 RMK A01 T00360001  RH  078%=      5-min Rain = 0
KPD3 061338Z 34014KT 04/00 A3033 RMK A01 T00360001  RH  078%=      5-min Rain = 0
KPD3 061339Z 34016KT 04/00 A3033 RMK A01 T00360001  RH  078%=      5-min Rain = 0
KPD3 061340Z 33014G19KT 04/00 A3033 RMK A01 T00360001  RH  078%=      5-min Rain = 0
KPD3 061341Z 34016KT 04/00 A3033 RMK A01 T00350001  RH  078%=      5-min Rain = 0
KPD3 061342Z 34016KT 04/00 A3033 RMK A01 T00360001  RH  078%=      5-min Rain = 0
KPD3 061343Z 34017KT 04/00 A3033 RMK A01 T00350001  RH  078%=      5-min Rain = 0
KPD3 061344Z 34015KT 04/00 A3033 RMK A01 T00360001  RH  078%=      5-min Rain = 0
KPD3 061345Z 34014KT 04/00 A3033 RMK A01 T00360001  RH  078%=      5-min Rain = 0
KPD3 061346Z 34016G22KT 04/00 A3033 RMK A01 T00360001  RH  078%=      5-min Rain = 0
KPD3 061347Z 34014KT 04/00 A3033 RMK A01 T00360001  RH  078%=      5-min Rain = 0
KPD3 061348Z 34011KT 04/00 A3034 RMK A01 T00360001  RH  078%=      5-min Rain = 0
KPD3 061349Z 34013G18KT 04/00 A3034 RMK A01 T00350001  RH  078%=      5-min Rain = 0
KPD3 061350Z 34012KT 04/00 A3034 RMK A01 T00350001  RH  078%=      5-min Rain = 0
KPD3 061351Z 34012KT 04/00 A3034 RMK A01 T00350001  RH  078%=      5-min Rain = 0
KPD3 061352Z 34013KT 04/00 A3034 RMK A01 T00350001  RH  078%=      5-min Rain = 0
KPD3 061353Z 33012KT 04/00 A3034 RMK A01 T00350001  RH  078%=      5-min Rain = 0
KPD3 061354Z 33015G20KT 04/00 A3034 RMK A01 T00360001  RH  078%=      5-min Rain = 0
KPD3 061355Z 34012G18KT 04/00 A3034 RMK A01 T00360001  RH  078%=      5-min Rain = 0
KPD3 061356Z 33008KT 04/00 A3034 RMK A01 T00360001  RH  078%=      5-min Rain = 0
KPD3 061357Z 33013KT 04/00 A3035 RMK A01 T00360001  RH  078%=      5-min Rain = 0
KPD3 061358Z 32012KT 04/00 A3035 RMK A01 T00360000  RH  078%=      5-min Rain = 0
KPD3 061359Z 33012KT 04/00 A3035 RMK A01 T00360001  RH  077%=      5-min Rain = 0
KPD3 061400Z 32011KT 04/00 A3035 RMK A01 T00370001  RH  077%=      5-min Rain = 0
KPD3 061401Z 32008KT 04/00 A3035 RMK A01 T00370001  RH  077%=      5-min Rain = 0
KPD3 061402Z 33009KT 04/00 A3035 RMK A01 T00370001  RH  077%=      5-min Rain = 0
KPD3 061403Z 34010KT 04/00 A3035 RMK A01 T00370000  RH  077%=      5-min Rain = 0
KPD3 061404Z 33009KT 04/00 A3035 RMK A01 T00370000  RH  077%=      5-min Rain = 0
KPD3 061405Z 33010KT 04/00 A3035 RMK A01 T00370001  RH  077%=      5-min Rain = 0
KPD3 061406Z 33009KT 04/00 A3035 RMK A01 T00370000  RH  077%=      5-min Rain = 0
KPD3 061407Z 32008KT 04/00 A3035 RMK A01 T00380001  RH  077%=      5-min Rain = 0
KPD3 061408Z 32008KT 04/00 A3035 RMK A01 T00380001  RH  077%=      5-min Rain = 0
KPD3 061409Z 33009KT 04/00 A3035 RMK A01 T00380001  RH  077%=      5-min Rain = 0
KPD3 061410Z 33007KT 04/00 A3035 RMK A01 T00380001  RH  076%=      5-min Rain = 0
KPD3 061411Z 33007KT 04/00 A3035 RMK A01 T00380001  RH  076%=      5-min Rain = 0
KPD3 061412Z 32006G11KT 04/00 A3035 RMK A01 T00380000  RH  076%=      5-min Rain = 0
KPD3 061413Z 33009KT 04/00 A3036 RMK A01 T00380001  RH  076%=      5-min Rain = 0
KPD3 061414Z 32008KT 04/00 A3036 RMK A01 T00380001  RH  076%=      5-min Rain = 0
KPD3 061415Z 33009KT 04/00 A3036 RMK A01 T00390001  RH  076%=      5-min Rain = 0
KPD3 061416Z 33009G14KT 04/00 A3036 RMK A01 T00390001  RH  076%=      5-min Rain = 0
KPD3 061417Z 33009KT 04/00 A3036 RMK A01 T00390001  RH  076%=      5-min Rain = 0
KPD3 061418Z 33008KT 04/00 A3036 RMK A01 T00400001  RH  076%=      5-min Rain = 0
KPD3 061419Z 33006KT 04/00 A3036 RMK A01 T00400001  RH  076%=      5-min Rain = 0
KPD3 061420Z 32005KT 04/00 A3036 RMK A01 T00410002  RH  076%=      5-min Rain = 0
KPD3 061421Z 33006KT 04/00 A3036 RMK A01 T00410002  RH  076%=      5-min Rain = 0
KPD3 061422Z 32006KT 04/00 A3036 RMK A01 T00420002  RH  075%=      5-min Rain = 0
KPD3 061423Z 32005KT 04/00 A3036 RMK A01 T00420001  RH  075%=      5-min Rain = 0
KPD3 061424Z 33004KT 04/00 A3036 RMK A01 T00420001  RH  075%=      5-min Rain = 0
KPD3 061425Z 33005KT 04/00 A3036 RMK A01 T00430002  RH  075%=      5-min Rain = 0
KPD3 061426Z 33007KT 04/00 A3036 RMK A01 T00430002  RH  074%=      5-min Rain = 0
KPD3 061427Z 33006KT 04/00 A3036 RMK A01 T00440001  RH  074%=      5-min Rain = 0
KPD3 061428Z 33007KT 04/00 A3036 RMK A01 T00440001  RH  074%=      5-min Rain = 0
KPD3 061429Z 35007KT 04/00 A3036 RMK A01 T00440001  RH  074%=      5-min Rain = 0
KPD3 061430Z 35007KT 04/00 A3036 RMK A01 T00440001  RH  074%=      5-min Rain = 0
KPD3 061431Z 34006KT 05/00 A3036 RMK A01 T00450002  RH  074%=      5-min Rain = 0
KPD3 061432Z 34006KT 05/00 A3036 RMK A01 T00450002  RH  074%=      5-min Rain = 0
KPD3 061433Z 34006KT 05/00 A3036 RMK A01 T00460002  RH  073%=      5-min Rain = 0
KPD3 061434Z 34006KT 05/00 A3036 RMK A01 T00460002  RH  073%=      5-min Rain = 0
KPD3 061435Z 34007KT 05/00 A3036 RMK A01 T00470003  RH  073%=      5-min Rain = 0
KPD3 061436Z 34008KT 05/00 A3036 RMK A01 T00470003  RH  073%=      5-min Rain = 0
KPD3 061437Z 35009KT 05/00 A3036 RMK A01 T00480002  RH  072%=      5-min Rain = 0
KPD3 061438Z 35007KT 05/00 A3036 RMK A01 T00480002  RH  072%=      5-min Rain = 0
KPD3 061439Z 34008KT 05/00 A3036 RMK A01 T00480002  RH  072%=      5-min Rain = 0
KPD3 061440Z 35010KT 05/00 A3035 RMK A01 T00480002  RH  072%=      5-min Rain = 0
KPD3 061441Z 34009KT 05/00 A3035 RMK A01 T00480002  RH  072%=      5-min Rain = 0
KPD3 061442Z 34009KT 05/00 A3035 RMK A01 T00480003  RH  072%=      5-min Rain = 0
KPD3 061443Z 34013KT 05/00 A3035 RMK A01 T00490003  RH  072%=      5-min Rain = 0
KPD3 061444Z 34011KT 05/00 A3035 RMK A01 T00490002  RH  072%=      5-min Rain = 0
KPD3 061445Z 34011KT 05/00 A3035 RMK A01 T00490002  RH  072%=      5-min Rain = 0
KPD3 061446Z 34011KT 05/00 A3035 RMK A01 T00490002  RH  072%=      5-min Rain = 0
KPD3 061447Z 34011KT 05/00 A3035 RMK A01 T00490002  RH  072%=      5-min Rain = 0
KPD3 061448Z 34010KT 05/00 A3036 RMK A01 T00500003  RH  072%=      5-min Rain = 0
KPD3 061449Z 34010KT 05/00 A3036 RMK A01 T00500003  RH  072%=      5-min Rain = 0
KPD3 061450Z 34009KT 05/00 A3036 RMK A01 T00500003  RH  071%=      5-min Rain = 0
KPD3 061451Z 34009KT 05/00 A3036 RMK A01 T00510003  RH  071%=      5-min Rain = 0
KPD3 061452Z 34008KT 05/00 A3036 RMK A01 T00520004  RH  071%=      5-min Rain = 0
KPD3 061453Z 34008KT 05/00 A3036 RMK A01 T00520004  RH  071%=      5-min Rain = 0
KPD3 061454Z 35007KT 05/00 A3036 RMK A01 T00520004  RH  071%=      5-min Rain = 0
KPD3 061455Z 35009KT 05/00 A3036 RMK A01 T00530004  RH  071%=      5-min Rain = 0
KPD3 061456Z 35008KT 05/00 A3036 RMK A01 T00530004  RH  070%=      5-min Rain = 0
KPD3 061457Z 33009KT 05/00 A3036 RMK A01 T00540004  RH  070%=      5-min Rain = 0
KPD3 061458Z 35006KT 05/00 A3036 RMK A01 T00530004  RH  070%=      5-min Rain = 0
KPD3 061459Z 34009KT 05/00 A3036 RMK A01 T00540004  RH  070%=      5-min Rain = 0
KPD3 061500Z 34009KT 05/00 A3036 RMK A01 T00540004  RH  070%=      5-min Rain = 0
KPD3 061501Z 34009KT 05/00 A3036 RMK A01 T00540004  RH  070%=      5-min Rain = 0
KPD3 061502Z 35011KT 06/00 A3036 RMK A01 T00550004  RH  070%=      5-min Rain = 0
KPD3 061503Z 34010KT 06/00 A3036 RMK A01 T00550003  RH  069%=      5-min Rain = 0
KPD3 061504Z 33011KT 06/00 A3036 RMK A01 T00560003  RH  069%=      5-min Rain = 0
KPD3 061505Z 34011KT 06/00 A3036 RMK A01 T00570004  RH  069%=      5-min Rain = 0
KPD3 061506Z 34009KT 06/00 A3036 RMK A01 T00570003  RH  068%=      5-min Rain = 0
KPD3 061507Z 33008KT 06/00 A3036 RMK A01 T00570004  RH  069%=      5-min Rain = 0
KPD3 061508Z 34010KT 06/01 A3036 RMK A01 T00580005  RH  069%=      5-min Rain = 0
KPD3 061509Z 33011KT 06/00 A3036 RMK A01 T00580004  RH  068%=      5-min Rain = 0
KPD3 061510Z 34009KT 06/00 A3036 RMK A01 T00590004  RH  068%=      5-min Rain = 0
KPD3 061511Z 33012KT 06/00 A3036 RMK A01 T00600004  RH  067%=      5-min Rain = 0
KPD3 061512Z 33012KT 06/00 A3036 RMK A01 T00600003  RH  067%=      5-min Rain = 0
KPD3 061513Z 34012KT 06/00 A3036 RMK A01 T00600004  RH  067%=      5-min Rain = 0
KPD3 061514Z 33014KT 06/00 A3036 RMK A01 T00610003  RH  067%=      5-min Rain = 0
KPD3 061515Z 34013KT 06/00 A3036 RMK A01 T00610002  RH  066%=      5-min Rain = 0
KPD3 061516Z 33010KT 06/00 A3036 RMK A01 T00610002  RH  066%=      5-min Rain = 0
KPD3 061517Z 34010KT 06/00 A3036 RMK A01 T00610003  RH  066%=      5-min Rain = 0
KPD3 061518Z 34011KT 06/00 A3036 RMK A01 T00620003  RH  066%=      5-min Rain = 0
KPD3 061519Z 34008KT 06/00 A3036 RMK A01 T00630004  RH  066%=      5-min Rain = 0
KPD3 061520Z 32009KT 06/01 A3036 RMK A01 T00640005  RH  066%=      5-min Rain = 0
KPD3 061521Z 34007KT 07/01 A3037 RMK A01 T00650005  RH  065%=      5-min Rain = 0
KPD3 061522Z 33008KT 07/01 A3037 RMK A01 T00660006  RH  065%=      5-min Rain = 0
KPD3 061523Z 32010KT 07/01 A3036 RMK A01 T00660005  RH  065%=      5-min Rain = 0
KPD3 061524Z 33009KT 07/00 A3036 RMK A01 T00650003  RH  065%=      5-min Rain = 0
KPD3 061525Z 35009KT 07/00 A3036 RMK A01 T00650004  RH  065%=      5-min Rain = 0
KPD3 061526Z 34008KT 07/00 A3036 RMK A01 T00650004  RH  065%=      5-min Rain = 0
KPD3 061527Z 34008KT 07/00 A3036 RMK A01 T00650004  RH  065%=      5-min Rain = 0
KPD3 061528Z 34010KT 07/00 A3036 RMK A01 T00660004  RH  065%=      5-min Rain = 0
KPD3 061529Z 34010KT 07/00 A3037 RMK A01 T00660004  RH  064%=      5-min Rain = 0
KPD3 061530Z 33008KT 07/00 A3037 RMK A01 T00660003  RH  064%=      5-min Rain = 0
KPD3 061531Z 33009KT 07/00 A3037 RMK A01 T00660004  RH  065%=      5-min Rain = 0
KPD3 061532Z 34008KT 07/00 A3037 RMK A01 T00660003  RH  064%=      5-min Rain = 0
KPD3 061533Z 34008KT 07/00 A3037 RMK A01 T00660004  RH  065%=      5-min Rain = 0
KPD3 061534Z 34009KT 07/00 A3037 RMK A01 T00670003  RH  064%=      5-min Rain = 0
KPD3 061535Z 33008KT 07/00 A3037 RMK A01 T00670003  RH  064%=      5-min Rain = 0
KPD3 061536Z 33008KT 07/00 A3037 RMK A01 T00670003  RH  064%=      5-min Rain = 0
KPD3 061537Z 34007KT 07/00 A3037 RMK A01 T00680004  RH  064%=      5-min Rain = 0
KPD3 061538Z 34009KT 07/01 A3037 RMK A01 T00690005  RH  064%=      5-min Rain = 0
KPD3 061539Z 34008KT 07/00 A3037 RMK A01 T00700004  RH  063%=      5-min Rain = 0
KPD3 061540Z 34009KT 07/00 A3037 RMK A01 T00700004  RH  063%=      5-min Rain = 0
KPD3 061541Z 34008KT 07/00 A3037 RMK A01 T00700004  RH  063%=      5-min Rain = 0
KPD3 061542Z 35008KT 07/01 A3037 RMK A01 T00710005  RH  063%=      5-min Rain = 0
KPD3 061543Z 35010KT 07/00 A3037 RMK A01 T00710004  RH  062%=      5-min Rain = 0
KPD3 061544Z 35009KT 07/00 A3037 RMK A01 T00720003  RH  062%=      5-min Rain = 0
KPD3 061545Z 35009KT 07/00 A3037 RMK A01 T00710004  RH  062%=      5-min Rain = 0
KPD3 061546Z 35009KT 07/00 A3037 RMK A01 T00710004  RH  062%=      5-min Rain = 0
KPD3 061547Z 34010KT 07/00 A3037 RMK A01 T00720004  RH  062%=      5-min Rain = 0
KPD3 061548Z 34009KT 07/00 A3037 RMK A01 T00720004  RH  062%=      5-min Rain = 0
KPD3 061549Z 36009KT 07/01 A3037 RMK A01 T00730005  RH  062%=      5-min Rain = 0
KPD3 061550Z 35010KT 07/01 A3037 RMK A01 T00740005  RH  062%=      5-min Rain = 0
KPD3 061551Z 34009KT 07/01 A3037 RMK A01 T00740005  RH  061%=      5-min Rain = 0
KPD3 061552Z 34011KT 07/00 A3037 RMK A01 T00740004  RH  061%=      5-min Rain = 0
KPD3 061553Z 34010KT 08/00 A3037 RMK A01 T00750003  RH  061%=      5-min Rain = 0
KPD3 061554Z 34009KT 08/01 A3037 RMK A01 T00760005  RH  061%=      5-min Rain = 0
KPD3 061555Z 34010KT 08/01 A3037 RMK A01 T00770005  RH  060%=      5-min Rain = 0
KPD3 061556Z 35009KT 08/01 A3037 RMK A01 T00770005  RH  060%=      5-min Rain = 0
KPD3 061557Z 33010KT 08/01 A3037 RMK A01 T00780005  RH  060%=      5-min Rain = 0
KPD3 061558Z 33008KT 08/01 A3037 RMK A01 T00790006  RH  060%=      5-min Rain = 0
KPD3 061559Z 34008KT 08/01 A3037 RMK A01 T00810006  RH  059%=      5-min Rain = 0
KPD3 061600Z 36007KT 08/01 A3037 RMK A01 T00800005  RH  059%=      5-min Rain = 0
KPD3 061601Z 34008KT 08/01 A3037 RMK A01 T00810006  RH  059%=      5-min Rain = 0
KPD3 061602Z 34010KT 08/01 A3037 RMK A01 T00820005  RH  058%=      5-min Rain = 0
KPD3 061603Z 35008KT 08/00 A3038 RMK A01 T00830004  RH  058%=      5-min Rain = 0
KPD3 061604Z 35008KT 08/00 A3038 RMK A01 T00820004  RH  058%=      5-min Rain = 0
KPD3 061605Z 00008KT 08/00 A3038 RMK A01 T00800003  RH  058%=      5-min Rain = 0
KPD3 061606Z 00008KT 08/00 A3038 RMK A01 T00790003  RH  059%=      5-min Rain = 0
KPD3 061607Z 36007KT 08/00 A3038 RMK A01 T00770002  RH  059%=      5-min Rain = 0
KPD3 061608Z 35006KT 08/00 A3038 RMK A01 T00760002  RH  059%=      5-min Rain = 0
KPD3 061609Z 00005KT 08/00 A3038 RMK A01 T00770002  RH  059%=      5-min Rain = 0
KPD3 061610Z 36005KT 08/00 A3038 RMK A01 T00780004  RH  060%=      5-min Rain = 0
KPD3 061611Z 34006KT 08/00 A3038 RMK A01 T00780003  RH  059%=      5-min Rain = 0
KPD3 061612Z 00007KT 08/00 A3038 RMK A01 T00780004  RH  059%=      5-min Rain = 0
KPD3 061613Z 01008KT 08/01 A3038 RMK A01 T00790005  RH  060%=      5-min Rain = 0
KPD3 061614Z 01009KT 08/01 A3038 RMK A01 T00790005  RH  059%=      5-min Rain = 0
KPD3 061615Z 01008KT 08/00 A3038 RMK A01 T00780004  RH  059%=      5-min Rain = 0
KPD3 061616Z 01008KT 08/00 A3038 RMK A01 T00780004  RH  060%=      5-min Rain = 0
KPD3 061617Z 01009KT 08/01 A3038 RMK A01 T00790005  RH  060%=      5-min Rain = 0
KPD3 061618Z 01007KT 08/01 A3038 RMK A01 T00800005  RH  059%=      5-min Rain = 0
KPD3 061619Z 01005KT 08/00 A3039 RMK A01 T00790004  RH  059%=      5-min Rain = 0
KPD3 061620Z 36006KT 08/01 A3039 RMK A01 T00800007  RH  060%=      5-min Rain = 0
KPD3 061621Z 36007KT 08/01 A3039 RMK A01 T00820007  RH  059%=      5-min Rain = 0
KPD3 061622Z 36007KT 08/01 A3039 RMK A01 T00830006  RH  058%=      5-min Rain = 0
KPD3 061623Z 34006KT 08/01 A3039 RMK A01 T00840005  RH  058%=      5-min Rain = 0
KPD3 061624Z 36007KT 08/01 A3039 RMK A01 T00840005  RH  057%=      5-min Rain = 0
KPD3 061625Z 35006KT 08/00 A3039 RMK A01 T00840004  RH  057%=      5-min Rain = 0
KPD3 061626Z 34006KT 09/01 A3039 RMK A01 T00850006  RH  057%=      5-min Rain = 0
KPD3 061627Z 34007KT 09/01 A3039 RMK A01 T00850005  RH  057%=      5-min Rain = 0
KPD3 061628Z 34005KT 09/00 A3039 RMK A01 T00850003  RH  057%=      5-min Rain = 0
KPD3 061629Z 35005KT 08/00 A3039 RMK A01 T00830004  RH  057%=      5-min Rain = 0
KPD3 061630Z 34006KT 08/01 A3038 RMK A01 T00840005  RH  058%=      5-min Rain = 0
KPD3 061631Z 01004KT 09/01 A3038 RMK A01 T00850007  RH  058%=      5-min Rain = 0
KPD3 061632Z 35006KT 09/01 A3038 RMK A01 T00870007  RH  057%=      5-min Rain = 0
KPD3 061633Z 34007KT 09/01 A3038 RMK A01 T00880005  RH  056%=      5-min Rain = 0
KPD3 061634Z 34006KT 09/00 A3038 RMK A01 T00870003  RH  056%=      5-min Rain = 0
KPD3 061635Z 33005KT 09/00 A3039 RMK A01 T00850003  RH  056%=      5-min Rain = 0
KPD3 061636Z 34004KT 09/01 A3039 RMK A01 T00850005  RH  057%=      5-min Rain = 0
KPD3 061637Z 34005KT 09/01 A3039 RMK A01 T00850005  RH  057%=      5-min Rain = 0
KPD3 061638Z 36006KT 09/01 A3039 RMK A01 T00870006  RH  057%=      5-min Rain = 0
KPD3 061639Z 36007KT 09/01 A3039 RMK A01 T00870005  RH  057%=      5-min Rain = 0
KPD3 061640Z 35007KT 09/01 A3039 RMK A01 T00870006  RH  057%=      5-min Rain = 0
KPD3 061641Z 36006KT 09/00 A3039 RMK A01 T00850003  RH  056%=      5-min Rain = 0
KPD3 061642Z 01006KT 09/01 A3039 RMK A01 T00850005  RH  057%=      5-min Rain = 0
KPD3 061643Z 34007KT 09/01 A3039 RMK A01 T00870006  RH  057%=      5-min Rain = 0
KPD3 061644Z 34006KT 09/00 A3039 RMK A01 T00870004  RH  056%=      5-min Rain = 0
KPD3 061645Z 33005KT 09/00 A3039 RMK A01 T00870003  RH  056%=      5-min Rain = 0
KPD3 061646Z 35007KT 09/00 A3039 RMK A01 T00860004  RH  057%=      5-min Rain = 0
KPD3 061647Z 00009KT 09/01 A3039 RMK A01 T00880005  RH  056%=      5-min Rain = 0
KPD3 061648Z 35007KT 09/01 A3039 RMK A01 T00880005  RH  056%=      5-min Rain = 0
KPD3 061649Z 35006KT 09/00 A3039 RMK A01 T00890004  RH  055%=      5-min Rain = 0
KPD3 061650Z 34008KT 09/01 A3039 RMK A01 T00890005  RH  056%=      5-min Rain = 0
KPD3 061651Z 34008KT 09/01 A3039 RMK A01 T00890005  RH  056%=      5-min Rain = 0
KPD3 061652Z 35008KT 09/01 A3039 RMK A01 T00890005  RH  055%=      5-min Rain = 0
KPD3 061653Z 34007KT 09/01 A3039 RMK A01 T00890005  RH  056%=      5-min Rain = 0
KPD3 061654Z 35006KT 09/00 A3039 RMK A01 T00890003  RH  055%=      5-min Rain = 0
KPD3 061655Z 34008KT 09/00 A3039 RMK A01 T00890003  RH  055%=      5-min Rain = 0
KPD3 061656Z 34007KT 09/00 A3039 RMK A01 T00890003  RH  055%=      5-min Rain = 0
KPD3 061657Z 33007KT 09/01 A3039 RMK A01 T00880005  RH  056%=      5-min Rain = 0
KPD3 061658Z 34005KT 09/01 A3039 RMK A01 T00920008  RH  056%=      5-min Rain = 0
KPD3 061659Z 33006KT 09/01 A3039 RMK A01 T00930007  RH  055%=      5-min Rain = 0
KPD3 061700Z 34007KT 09/01 A3039 RMK A01 T00930005  RH  054%=      5-min Rain = 0
KPD3 061701Z 35009KT 09/01 A3039 RMK A01 T00940006  RH  054%=      5-min Rain = 0
KPD3 061702Z 35006KT 09/01 A3039 RMK A01 T00940006  RH  054%=      5-min Rain = 0
KPD3 061703Z 34007KT 09/01 A3039 RMK A01 T00940007  RH  054%=      5-min Rain = 0
KPD3 061704Z 34007KT 09/01 A3039 RMK A01 T00930005  RH  054%=      5-min Rain = 0
KPD3 061705Z 34006KT 09/01 A3038 RMK A01 T00920005  RH  054%=      5-min Rain = 0
KPD3 061706Z 34007KT 09/01 A3038 RMK A01 T00930006  RH  055%=      5-min Rain = 0
KPD3 061707Z 35007KT 09/01 A3038 RMK A01 T00940005  RH  054%=      5-min Rain = 0
KPD3 061708Z 35008KT 09/00 A3038 RMK A01 T00930004  RH  053%=      5-min Rain = 0
KPD3 061709Z 35009KT 09/00 A3038 RMK A01 T00940004  RH  053%=      5-min Rain = 0
KPD3 061710Z 35009KT 09/00 A3038 RMK A01 T00940002  RH  053%=      5-min Rain = 0
KPD3 061711Z 33007KT 09/00 A3038 RMK A01 T00930003  RH  053%=      5-min Rain = 0
KPD3 061712Z 34006KT 09/00 A3038 RMK A01 T00930004  RH  054%=      5-min Rain = 0
KPD3 061713Z 33007KT 10/01 A3038 RMK A01 T00950005  RH  054%=      5-min Rain = 0
KPD3 061714Z 35007KT 10/01 A3038 RMK A01 T00960006  RH  054%=      5-min Rain = 0
KPD3 061715Z 00005KT 10/01 A3038 RMK A01 T00970007  RH  053%=      5-min Rain = 0
KPD3 061716Z 34005KT 10/01 A3038 RMK A01 T00960006  RH  053%=      5-min Rain = 0
KPD3 061717Z 32005KT 10/01 A3038 RMK A01 T00970008  RH  054%=      5-min Rain = 0
KPD3 061718Z 33005KT 10/01 A3038 RMK A01 T00980006  RH  053%=      5-min Rain = 0
KPD3 061719Z 36008KT 10/01 A3038 RMK A01 T00980007  RH  053%=      5-min Rain = 0
KPD3 061720Z 00007KT 10/01 A3038 RMK A01 T01000008  RH  053%=      5-min Rain = 0
KPD3 061721Z 34005KT 10/01 A3038 RMK A01 T01000007  RH  052%=      5-min Rain = 0
KPD3 061722Z 35006KT 10/01 A3038 RMK A01 T00990007  RH  053%=      5-min Rain = 0
KPD3 061723Z 33006KT 10/01 A3038 RMK A01 T01010007  RH  052%=      5-min Rain = 0
KPD3 061724Z 33006KT 10/01 A3038 RMK A01 T01010006  RH  052%=      5-min Rain = 0
KPD3 061725Z 36006KT 10/01 A3038 RMK A01 T01000006  RH  052%=      5-min Rain = 0
KPD3 061726Z 34007KT 10/01 A3038 RMK A01 T01000005  RH  052%=      5-min Rain = 0
KPD3 061727Z 35005KT 10/01 A3038 RMK A01 T01000006  RH  052%=      5-min Rain = 0
KPD3 061728Z 35005KT 10/01 A3038 RMK A01 T01010007  RH  052%=      5-min Rain = 0
KPD3 061729Z 33007KT 10/01 A3038 RMK A01 T01020007  RH  052%=      5-min Rain = 0
KPD3 061730Z 32007KT 10/01 A3038 RMK A01 T01030006  RH  051%=      5-min Rain = 0
KPD3 061731Z 32007KT 10/01 A3038 RMK A01 T01040009  RH  052%=      5-min Rain = 0
KPD3 061732Z 34008KT 10/01 A3038 RMK A01 T01040008  RH  051%=      5-min Rain = 0
KPD3 061733Z 35006KT 10/01 A3038 RMK A01 T01040007  RH  051%=      5-min Rain = 0
KPD3 061734Z 33004KT 10/01 A3038 RMK A01 T01030005  RH  051%=      5-min Rain = 0
KPD3 061735Z 32004KT 10/01 A3038 RMK A01 T01020005  RH  051%=      5-min Rain = 0
KPD3 061736Z 34005KT 10/01 A3038 RMK A01 T01040007  RH  051%=      5-min Rain = 0
KPD3 061737Z 34005KT 11/00 A3038 RMK A01 T01060004  RH  049%=      5-min Rain = 0
KPD3 061738Z 34005KT 10/00 A3038 RMK A01 T01040002  RH  049%=      5-min Rain = 0
KPD3 061739Z 35007KT 11/01 A3038 RMK A01 T01050007  RH  051%=      5-min Rain = 0
KPD3 061740Z 01005KT 11/00 A3038 RMK A01 T01060004  RH  049%=      5-min Rain = 0
KPD3 061741Z 00005KT 10/01 A3038 RMK A01 T01040006  RH  050%=      5-min Rain = 0
KPD3 061742Z 01006KT 11/01 A3038 RMK A01 T01070006  RH  050%=      5-min Rain = 0
KPD3 061743Z 00007KT 11/00 A3038 RMK A01 T01070004  RH  049%=      5-min Rain = 0
KPD3 061744Z 00007KT 11/01 A3038 RMK A01 T01080007  RH  050%=      5-min Rain = 0
KPD3 061745Z 00005KT 11/01 A3038 RMK A01 T01090008  RH  049%=      5-min Rain = 0
KPD3 061746Z 02004KT 11/01 A3038 RMK A01 T01100008  RH  049%=      5-min Rain = 0
KPD3 061747Z 02005KT 11/01 A3038 RMK A01 T01120008  RH  049%=      5-min Rain = 0
KPD3 061748Z 01003KT 11/01 A3038 RMK A01 T01120006  RH  048%=      5-min Rain = 0
KPD3 061749Z 04005KT 11/01 A3038 RMK A01 T01100005  RH  048%=      5-min Rain = 0
KPD3 061750Z 01006KT 11/01 A3038 RMK A01 T01100005  RH  048%=      5-min Rain = 0
KPD3 061751Z 36007KT 11/01 A3037 RMK A01 T01100005  RH  048%=      5-min Rain = 0
KPD3 061752Z 35006KT 11/01 A3037 RMK A01 T01120005  RH  048%=      5-min Rain = 0
KPD3 061753Z 35004KT 11/00 A3037 RMK A01 T01100001  RH  047%=      5-min Rain = 0
KPD3 061754Z 35003KT 11/00 A3037 RMK A01 T01090001  RH  047%=      5-min Rain = 0
KPD3 061755Z 01003KT 11/00 A3037 RMK A01 T01080001  RH  048%=      5-min Rain = 0
KPD3 061756Z 02005G10KT 11/00 A3037 RMK A01 T01080002  RH  048%=      5-min Rain = 0
KPD3 061757Z 02008KT 11/00 A3037 RMK A01 T01080002  RH  048%=      5-min Rain = 0
KPD3 061758Z 03008KT 11/00 A3037 RMK A01 T01110002  RH  047%=      5-min Rain = 0
KPD3 061759Z 02007KT 11/00 A3037 RMK A01 T01110001  RH  046%=      5-min Rain = 0
KPD3 061800Z 03008KT 11/M00 A3037 RMK A01 T01101001  RH  046%=      5-min Rain = 0
KPD3 061801Z 02006KT 11/M00 A3037 RMK A01 T01081002  RH  046%=      5-min Rain = 0
KPD3 061802Z 02006KT 11/M00 A3037 RMK A01 T01071001  RH  047%=      5-min Rain = 0
KPD3 061803Z 03003KT 11/00 A3037 RMK A01 T01070000  RH  048%=      5-min Rain = 0
KPD3 061804Z 35008G13KT 11/00 A3036 RMK A01 T01060001  RH  048%=      5-min Rain = 0
KPD3 061805Z 01008KT 11/00 A3036 RMK A01 T01070002  RH  048%=      5-min Rain = 0
KPD3 061806Z 01007KT 11/00 A3036 RMK A01 T01090002  RH  048%=      5-min Rain = 0
KPD3 061807Z 36009KT 11/00 A3036 RMK A01 T01090001  RH  047%=      5-min Rain = 0
KPD3 061808Z 36007KT 11/00 A3036 RMK A01 T01070002  RH  048%=      5-min Rain = 0
KPD3 061809Z 00007KT 11/00 A3036 RMK A01 T01070003  RH  048%=      5-min Rain = 0
KPD3 061810Z 36007KT 11/00 A3036 RMK A01 T01070003  RH  048%=      5-min Rain = 0
KPD3 061811Z 01009KT 11/01 A3036 RMK A01 T01100005  RH  048%=      5-min Rain = 0
KPD3 061812Z 00007KT 11/00 A3036 RMK A01 T01090004  RH  048%=      5-min Rain = 0
KPD3 061813Z 35005KT 11/00 A3036 RMK A01 T01080003  RH  048%=      5-min Rain = 0
KPD3 061814Z 00007KT 11/00 A3036 RMK A01 T01070003  RH  049%=      5-min Rain = 0
KPD3 061815Z 35009KT 11/01 A3036 RMK A01 T01100005  RH  049%=      5-min Rain = 0
KPD3 061816Z 36008KT 11/00 A3036 RMK A01 T01130004  RH  047%=      5-min Rain = 0
KPD3 061817Z 36009KT 12/01 A3036 RMK A01 T01150005  RH  047%=      5-min Rain = 0
KPD3 061818Z 00009KT 11/00 A3036 RMK A01 T01140003  RH  047%=      5-min Rain = 0
KPD3 061819Z 00007KT 11/00 A3036 RMK A01 T01120001  RH  046%=      5-min Rain = 0
KPD3 061820Z 00007KT 11/00 A3036 RMK A01 T01110002  RH  047%=      5-min Rain = 0
KPD3 061821Z 00007KT 11/00 A3036 RMK A01 T01110002  RH  047%=      5-min Rain = 0
KPD3 061822Z 01005KT 11/00 A3036 RMK A01 T01110003  RH  047%=      5-min Rain = 0
KPD3 061823Z 02005G10KT 11/00 A3036 RMK A01 T01100003  RH  047%=      5-min Rain = 0
KPD3 061824Z 03009KT 11/00 A3036 RMK A01 T01100003  RH  048%=      5-min Rain = 0
KPD3 061825Z 03006KT 11/00 A3036 RMK A01 T01100002  RH  047%=      5-min Rain = 0
KPD3 061826Z 03005KT 11/00 A3036 RMK A01 T01100001  RH  047%=      5-min Rain = 0
KPD3 061827Z 35005KT 11/00 A3036 RMK A01 T01100001  RH  047%=      5-min Rain = 0
KPD3 061828Z 34005KT 11/00 A3036 RMK A01 T01110002  RH  047%=      5-min Rain = 0
KPD3 061829Z 35006KT 11/00 A3036 RMK A01 T01110003  RH  047%=      5-min Rain = 0
KPD3 061830Z 34007KT 11/00 A3036 RMK A01 T01120003  RH  047%=      5-min Rain = 0
KPD3 061831Z 00006KT 11/00 A3036 RMK A01 T01130003  RH  047%=      5-min Rain = 0
KPD3 061832Z 01007KT 11/00 A3035 RMK A01 T01130003  RH  047%=      5-min Rain = 0
KPD3 061833Z 02007KT 11/00 A3035 RMK A01 T01130003  RH  047%=      5-min Rain = 0
KPD3 061834Z 02006KT 11/00 A3035 RMK A01 T01130004  RH  047%=      5-min Rain = 0
KPD3 061835Z 01007KT 11/00 A3035 RMK A01 T01140004  RH  047%=      5-min Rain = 0
KPD3 061836Z 02005KT 12/00 A3035 RMK A01 T01150004  RH  046%=      5-min Rain = 0
KPD3 061837Z 01008KT 12/01 A3035 RMK A01 T01170005  RH  046%=      5-min Rain = 0
KPD3 061838Z 35008KT 12/00 A3035 RMK A01 T01170004  RH  046%=      5-min Rain = 0
KPD3 061839Z 35007KT 12/00 A3035 RMK A01 T01170004  RH  046%=      5-min Rain = 0
KPD3 061840Z 36009KT 12/00 A3035 RMK A01 T01170004  RH  046%=      5-min Rain = 0
KPD3 061841Z 36006KT 12/00 A3035 RMK A01 T01170004  RH  046%=      5-min Rain = 0
KPD3 061842Z 35005KT 12/00 A3035 RMK A01 T01170004  RH  046%=      5-min Rain = 0
KPD3 061843Z 34003KT 12/00 A3035 RMK A01 T01170003  RH  045%=      5-min Rain = 0
KPD3 061844Z 36008KT 12/00 A3035 RMK A01 T01170003  RH  045%=      5-min Rain = 0
KPD3 061845Z 35008KT 12/00 A3035 RMK A01 T01180003  RH  045%=      5-min Rain = 0
KPD3 061846Z 00006KT 12/00 A3035 RMK A01 T01170002  RH  045%=      5-min Rain = 0
KPD3 061847Z 02006KT 12/00 A3035 RMK A01 T01160002  RH  045%=      5-min Rain = 0
KPD3 061848Z 02005KT 12/00 A3035 RMK A01 T01160001  RH  045%=      5-min Rain = 0
KPD3 061849Z 01004KT 12/00 A3035 RMK A01 T01160000  RH  045%=      5-min Rain = 0
KPD3 061850Z 01005KT 12/00 A3035 RMK A01 T01160001  RH  045%=      5-min Rain = 0
KPD3 061851Z 02004KT 12/00 A3034 RMK A01 T01160002  RH  045%=      5-min Rain = 0
KPD3 061852Z 01005KT 12/00 A3034 RMK A01 T01160002  RH  045%=      5-min Rain = 0
KPD3 061853Z 01007KT 12/00 A3034 RMK A01 T01160002  RH  045%=      5-min Rain = 0
KPD3 061854Z 02007KT 12/00 A3034 RMK A01 T01160001  RH  045%=      5-min Rain = 0
KPD3 061855Z 03006KT 12/00 A3034 RMK A01 T01170001  RH  045%=      5-min Rain = 0
KPD3 061856Z 02004KT 12/M00 A3034 RMK A01 T01161001  RH  044%=      5-min Rain = 0
KPD3 061857Z 02003KT 12/M00 A3034 RMK A01 T01151001  RH  045%=      5-min Rain = 0
KPD3 061858Z 03003KT 12/00 A3034 RMK A01 T01150000  RH  045%=      5-min Rain = 0
KPD3 061859Z 03002KT 12/00 A3034 RMK A01 T01160002  RH  045%=      5-min Rain = 0
KPD3 061900Z 34005KT 12/00 A3034 RMK A01 T01190003  RH  045%=      5-min Rain = 0
KPD3 061901Z 01007KT 12/00 A3034 RMK A01 T01210003  RH  044%=      5-min Rain = 0
KPD3 061902Z 01008KT 12/00 A3034 RMK A01 T01200001  RH  044%=      5-min Rain = 0
KPD3 061903Z 01007KT 12/00 A3034 RMK A01 T01190001  RH  044%=      5-min Rain = 0
KPD3 061904Z 02006KT 12/00 A3034 RMK A01 T01190001  RH  044%=      5-min Rain = 0
KPD3 061905Z 02006KT 12/00 A3034 RMK A01 T01200002  RH  044%=      5-min Rain = 0
KPD3 061906Z 01007KT 12/00 A3034 RMK A01 T01210001  RH  044%=      5-min Rain = 0
KPD3 061907Z 03005KT 12/M00 A3034 RMK A01 T01211001  RH  043%=      5-min Rain = 0
KPD3 061908Z 02008KT 12/M00 A3034 RMK A01 T01201001  RH  043%=      5-min Rain = 0
KPD3 061909Z 02005KT 12/M00 A3034 RMK A01 T01201001  RH  043%=      5-min Rain = 0
KPD3 061910Z 01006KT 12/00 A3034 RMK A01 T01220000  RH  043%=      5-min Rain = 0
KPD3 061911Z 01005KT 12/M00 A3034 RMK A01 T01221004  RH  042%=      5-min Rain = 0
KPD3 061912Z 00004KT 12/M01 A3034 RMK A01 T01201005  RH  042%=      5-min Rain = 0
KPD3 061913Z 01006KT 12/M01 A3034 RMK A01 T01201005  RH  042%=      5-min Rain = 0
KPD3 061914Z 03006KT 12/M00 A3034 RMK A01 T01191004  RH  043%=      5-min Rain = 0
KPD3 061915Z 03007KT 12/M00 A3033 RMK A01 T01191001  RH  043%=      5-min Rain = 0
KPD3 061916Z 01006KT 12/M00 A3033 RMK A01 T01201002  RH  043%=      5-min Rain = 0
KPD3 061917Z 35004KT 12/M00 A3033 RMK A01 T01201003  RH  043%=      5-min Rain = 0
KPD3 061918Z 01004KT 12/M00 A3033 RMK A01 T01201003  RH  043%=      5-min Rain = 0
KPD3 061919Z 01003KT 12/M00 A3033 RMK A01 T01201004  RH  043%=      5-min Rain = 0
KPD3 061920Z 36003KT 12/M01 A3033 RMK A01 T01181005  RH  043%=      5-min Rain = 0
KPD3 061921Z 02002KT 12/M00 A3033 RMK A01 T01181004  RH  043%=      5-min Rain = 0
KPD3 061922Z 01006KT 12/M00 A3033 RMK A01 T01191002  RH  043%=      5-min Rain = 0
KPD3 061923Z 00004KT 12/M00 A3033 RMK A01 T01201004  RH  042%=      5-min Rain = 0
KPD3 061924Z 00005KT 12/M00 A3033 RMK A01 T01201004  RH  042%=      5-min Rain = 0
KPD3 061925Z 03006KT 12/M00 A3033 RMK A01 T01201003  RH  043%=      5-min Rain = 0
KPD3 061926Z 02007KT 12/M00 A3033 RMK A01 T01211003  RH  043%=      5-min Rain = 0
KPD3 061927Z 02008KT 12/M00 A3033 RMK A01 T01211001  RH  043%=      5-min Rain = 0
KPD3 061928Z 02007KT 12/M00 A3033 RMK A01 T01231001  RH  043%=      5-min Rain = 0
KPD3 061929Z 02006KT 12/M00 A3033 RMK A01 T01221002  RH  042%=      5-min Rain = 0
KPD3 061930Z 35007KT 12/M00 A3033 RMK A01 T01221003  RH  042%=      5-min Rain = 0
KPD3 061931Z 00005KT 12/M01 A3033 RMK A01 T01211005  RH  042%=      5-min Rain = 0
KPD3 061932Z 36006KT 12/M00 A3033 RMK A01 T01201004  RH  042%=      5-min Rain = 0
KPD3 061933Z 01006KT 12/M00 A3033 RMK A01 T01211003  RH  042%=      5-min Rain = 0
KPD3 061934Z 02007KT 12/M00 A3033 RMK A01 T01231002  RH  042%=      5-min Rain = 0
KPD3 061935Z 02006KT 13/M00 A3032 RMK A01 T01251003  RH  041%=      5-min Rain = 0
KPD3 061936Z 03007KT 13/M00 A3033 RMK A01 T01261003  RH  041%=      5-min Rain = 0
KPD3 061937Z 03008KT 13/M00 A3033 RMK A01 T01261003  RH  041%=      5-min Rain = 0
KPD3 061938Z 03007KT 13/M01 A3033 RMK A01 T01251006  RH  041%=      5-min Rain = 0
KPD3 061939Z 03005KT 12/M01 A3032 RMK A01 T01221006  RH  041%=      5-min Rain = 0
KPD3 061940Z 05004KT 12/M01 A3032 RMK A01 T01211006  RH  042%=      5-min Rain = 0
KPD3 061941Z 02008KT 12/M01 A3032 RMK A01 T01211005  RH  042%=      5-min Rain = 0
KPD3 061942Z 02007KT 12/M01 A3032 RMK A01 T01221006  RH  041%=      5-min Rain = 0
KPD3 061943Z 02005KT 12/M01 A3032 RMK A01 T01221005  RH  041%=      5-min Rain = 0
KPD3 061944Z 00004KT 12/M00 A3032 RMK A01 T01231004  RH  041%=      5-min Rain = 0
KPD3 061945Z 00005KT 12/M01 A3032 RMK A01 T01231006  RH  041%=      5-min Rain = 0
KPD3 061946Z 34006KT 12/M00 A3032 RMK A01 T01231004  RH  041%=      5-min Rain = 0
KPD3 061947Z 00005KT 12/M01 A3032 RMK A01 T01241005  RH  041%=      5-min Rain = 0
KPD3 061948Z 36003KT 12/M01 A3032 RMK A01 T01241005  RH  041%=      5-min Rain = 0
KPD3 061949Z 02006KT 12/M01 A3032 RMK A01 T01231005  RH  041%=      5-min Rain = 0
KPD3 061950Z 03004KT 12/M01 A3032 RMK A01 T01231005  RH  041%=      5-min Rain = 0
KPD3 061951Z 00003KT 12/M01 A3032 RMK A01 T01231006  RH  041%=      5-min Rain = 0
KPD3 061952Z 03003KT 12/M01 A3032 RMK A01 T01231006  RH  041%=      5-min Rain = 0
KPD3 061953Z 05006KT 12/M01 A3032 RMK A01 T01231006  RH  041%=      5-min Rain = 0
KPD3 061954Z 05007KT 13/M01 A3032 RMK A01 T01251006  RH  040%=      5-min Rain = 0
KPD3 061955Z 07006KT 13/M01 A3032 RMK A01 T01251009  RH  039%=      5-min Rain = 0
KPD3 061956Z 07006KT 13/M01 A3032 RMK A01 T01251011  RH  039%=      5-min Rain = 0
KPD3 061957Z 06004KT 13/M01 A3032 RMK A01 T01251012  RH  039%=      5-min Rain = 0
KPD3 061958Z 06003KT 13/M01 A3032 RMK A01 T01251013  RH  038%=      5-min Rain = 0
KPD3 061959Z 05005KT 13/M01 A3032 RMK A01 T01251011  RH  039%=      5-min Rain = 0
KPD3 062000Z 06006KT 13/M01 A3032 RMK A01 T01251008  RH  040%=      5-min Rain = 0
KPD3 062001Z 05004KT 13/M01 A3032 RMK A01 T01251008  RH  040%=      5-min Rain = 0
KPD3 062002Z 02005KT 12/M01 A3032 RMK A01 T01231005  RH  041%=      5-min Rain = 0
KPD3 062003Z 02004KT 12/M00 A3032 RMK A01 T01241004  RH  041%=      5-min Rain = 0
KPD3 062004Z 36003KT 12/M00 A3032 RMK A01 T01241004  RH  041%=      5-min Rain = 0
KPD3 062005Z 00005KT 12/M00 A3032 RMK A01 T01241004  RH  041%=      5-min Rain = 0
KPD3 062006Z 01003KT 13/M00 A3032 RMK A01 T01251004  RH  041%=      5-min Rain = 0
KPD3 062007Z 36004KT 12/M01 A3032 RMK A01 T01241005  RH  041%=      5-min Rain = 0
KPD3 062008Z 34002KT 12/M01 A3032 RMK A01 T01231006  RH  041%=      5-min Rain = 0
KPD3 062009Z 35003KT 12/M01 A3032 RMK A01 T01231005  RH  041%=      5-min Rain = 0
KPD3 062010Z 04005KT 13/M00 A3032 RMK A01 T01251004  RH  041%=      5-min Rain = 0
KPD3 062011Z 02005KT 13/M01 A3032 RMK A01 T01261005  RH  040%=      5-min Rain = 0
KPD3 062012Z 03005KT 13/M01 A3032 RMK A01 T01261005  RH  040%=      5-min Rain = 0
KPD3 062013Z 01006KT 13/M01 A3032 RMK A01 T01271005  RH  040%=      5-min Rain = 0
KPD3 062014Z 01004KT 13/M01 A3032 RMK A01 T01271005  RH  040%=      5-min Rain = 0
KPD3 062015Z 00005KT 13/M01 A3032 RMK A01 T01271005  RH  040%=      5-min Rain = 0
KPD3 062016Z 00005KT 13/M01 A3032 RMK A01 T01271005  RH  040%=      5-min Rain = 0
KPD3 062017Z 01006KT 13/M01 A3032 RMK A01 T01261006  RH  040%=      5-min Rain = 0
KPD3 062018Z 35005KT 13/M01 A3032 RMK A01 T01261005  RH  040%=      5-min Rain = 0
KPD3 062019Z 34002KT 13/M01 A3032 RMK A01 T01251006  RH  040%=      5-min Rain = 0
KPD3 062020Z 31001KT 13/M01 A3032 RMK A01 T01261005  RH  041%=      5-min Rain = 0
KPD3 062021Z 28001KT 13/M01 A3032 RMK A01 T01271005  RH  040%=      5-min Rain = 0
KPD3 062022Z 28002KT 13/M01 A3032 RMK A01 T01271006  RH  040%=      5-min Rain = 0
KPD3 062023Z 33006G11KT 13/M00 A3032 RMK A01 T01301002  RH  040%=      5-min Rain = 0
KPD3 062024Z 02008KT 13/M00 A3031 RMK A01 T01301002  RH  040%=      5-min Rain = 0
KPD3 062025Z 03006KT 13/M00 A3032 RMK A01 T01311003  RH  040%=      5-min Rain = 0
KPD3 062026Z 05005KT 13/M00 A3032 RMK A01 T01321003  RH  039%=      5-min Rain = 0
KPD3 062027Z 02005KT 13/M00 A3031 RMK A01 T01321004  RH  039%=      5-min Rain = 0
KPD3 062028Z 03006KT 13/M00 A3031 RMK A01 T01311003  RH  040%=      5-min Rain = 0
KPD3 062029Z 03004KT 13/M00 A3031 RMK A01 T01321003  RH  039%=      5-min Rain = 0
KPD3 062030Z 08004KT 13/M00 A3031 RMK A01 T01331004  RH  039%=      5-min Rain = 0
KPD3 062031Z 08003KT 13/M01 A3031 RMK A01 T01311006  RH  039%=      5-min Rain = 0
KPD3 062032Z 07002KT 13/M01 A3031 RMK A01 T01301005  RH  039%=      5-min Rain = 0
KPD3 062033Z 09003KT 13/M01 A3031 RMK A01 T01311005  RH  039%=      5-min Rain = 0
KPD3 062034Z 07004KT 13/M01 A3031 RMK A01 T01331006  RH  038%=      5-min Rain = 0
KPD3 062035Z 08005KT 13/M01 A3031 RMK A01 T01321008  RH  038%=      5-min Rain = 0
KPD3 062036Z 07006KT 13/M01 A3031 RMK A01 T01321008  RH  038%=      5-min Rain = 0
KPD3 062037Z 06005KT 13/M01 A3031 RMK A01 T01321007  RH  038%=      5-min Rain = 0
KPD3 062038Z 09003KT 13/M01 A3031 RMK A01 T01321006  RH  039%=      5-min Rain = 0
KPD3 062039Z 10004KT 13/M01 A3031 RMK A01 T01321006  RH  038%=      5-min Rain = 0
KPD3 062040Z 05005KT 13/M01 A3031 RMK A01 T01321007  RH  038%=      5-min Rain = 0
KPD3 062041Z 04004KT 13/M01 A3031 RMK A01 T01321012  RH  037%=      5-min Rain = 0
KPD3 062042Z 08005KT 13/M01 A3031 RMK A01 T01311013  RH  037%=      5-min Rain = 0
KPD3 062043Z 10004KT 13/M01 A3031 RMK A01 T01301013  RH  037%=      5-min Rain = 0
KPD3 062044Z 08003KT 13/M01 A3031 RMK A01 T01311013  RH  037%=      5-min Rain = 0
KPD3 062045Z 06003KT 13/M01 A3031 RMK A01 T01301012  RH  037%=      5-min Rain = 0
KPD3 062046Z 06003KT 13/M01 A3031 RMK A01 T01311012  RH  037%=      5-min Rain = 0
KPD3 062047Z 05003KT 13/M01 A3031 RMK A01 T01311012  RH  037%=      5-min Rain = 0
KPD3 062048Z 02004KT 13/M01 A3031 RMK A01 T01311012  RH  037%=      5-min Rain = 0
KPD3 062049Z 05004KT 13/M01 A3031 RMK A01 T01321009  RH  038%=      5-min Rain = 0
KPD3 062050Z 06003KT 13/M01 A3031 RMK A01 T01341011  RH  037%=      5-min Rain = 0
KPD3 062051Z 07002KT 13/M01 A3031 RMK A01 T01341011  RH  037%=      5-min Rain = 0
KPD3 062052Z 09002KT 14/M01 A3031 RMK A01 T01361011  RH  036%=      5-min Rain = 0
KPD3 062053Z 13002KT 14/M01 A3031 RMK A01 T01351013  RH  036%=      5-min Rain = 0
KPD3 062054Z 15002KT 13/M01 A3031 RMK A01 T01341013  RH  036%=      5-min Rain = 0
KPD3 062055Z 17001KT 13/M01 A3031 RMK A01 T01341013  RH  036%=      5-min Rain = 0
KPD3 062056Z 12001KT 13/M01 A3031 RMK A01 T01341013  RH  036%=      5-min Rain = 0
KPD3 062057Z 11004KT 13/M01 A3031 RMK A01 T01341012  RH  037%=      5-min Rain = 0
KPD3 062058Z 09004KT 13/M01 A3031 RMK A01 T01331009  RH  038%=      5-min Rain = 0
KPD3 062059Z 07004KT 13/M01 A3032 RMK A01 T01311009  RH  038%=      5-min Rain = 0
KPD3 062100Z 08003KT 13/M01 A3032 RMK A01 T01291010  RH  038%=      5-min Rain = 0
KPD3 062101Z 07003KT 13/M01 A3032 RMK A01 T01271010  RH  039%=      5-min Rain = 0
KPD3 062102Z 10003KT 13/M01 A3032 RMK A01 T01261009  RH  039%=      5-min Rain = 0
KPD3 062103Z 11002KT 13/M01 A3032 RMK A01 T01261007  RH  040%=      5-min Rain = 0
KPD3 062104Z 14001KT 13/M01 A3032 RMK A01 T01261007  RH  040%=      5-min Rain = 0
KPD3 062105Z 05000KT 13/M01 A3032 RMK A01 T01261007  RH  040%=      5-min Rain = 0
KPD3 062106Z 07002KT 13/M01 A3031 RMK A01 T01271007  RH  040%=      5-min Rain = 0
KPD3 062107Z 07003KT 13/M01 A3031 RMK A01 T01281007  RH  039%=      5-min Rain = 0
KPD3 062108Z 06002KT 13/M01 A3031 RMK A01 T01271007  RH  039%=      5-min Rain = 0
KPD3 062109Z 07002KT 13/M01 A3031 RMK A01 T01271007  RH  039%=      5-min Rain = 0
KPD3 062110Z 06002KT 13/M01 A3031 RMK A01 T01271007  RH  040%=      5-min Rain = 0
KPD3 062111Z 06002KT 13/M01 A3031 RMK A01 T01271007  RH  040%=      5-min Rain = 0
KPD3 062112Z 06002KT 13/M01 A3031 RMK A01 T01271007  RH  040%=      5-min Rain = 0
KPD3 062113Z 09002KT 13/M01 A3031 RMK A01 T01261007  RH  040%=      5-min Rain = 0
KPD3 062114Z 09003KT 13/M00 A3031 RMK A01 T01261004  RH  041%=      5-min Rain = 0
KPD3 062115Z 07002KT 13/M01 A3031 RMK A01 T01271005  RH  040%=      5-min Rain = 0
KPD3 062116Z 10000KT 13/M01 A3032 RMK A01 T01271006  RH  040%=      5-min Rain = 0
KPD3 062117Z 13001KT 13/M01 A3032 RMK A01 T01271005  RH  040%=      5-min Rain = 0
KPD3 062118Z 13001KT 13/M01 A3032 RMK A01 T01281005  RH  040%=      5-min Rain = 0
KPD3 062119Z 13001KT 13/M01 A3032 RMK A01 T01281005  RH  040%=      5-min Rain = 0
KPD3 062120Z 10002KT 13/M01 A3032 RMK A01 T01281006  RH  040%=      5-min Rain = 0
KPD3 062121Z 09003KT 13/M01 A3032 RMK A01 T01281006  RH  040%=      5-min Rain = 0
KPD3 062122Z 08002KT 13/M01 A3032 RMK A01 T01271006  RH  040%=      5-min Rain = 0
KPD3 062123Z 07001KT 13/M01 A3032 RMK A01 T01261005  RH  040%=      5-min Rain = 0
KPD3 062124Z 08002KT 13/M01 A3032 RMK A01 T01261005  RH  041%=      5-min Rain = 0
KPD3 062125Z 08003KT 13/M01 A3032 RMK A01 T01261005  RH  040%=      5-min Rain = 0
KPD3 062126Z 06002KT 13/M01 A3032 RMK A01 T01261005  RH  040%=      5-min Rain = 0
KPD3 062127Z 03003KT 13/M00 A3032 RMK A01 T01261004  RH  041%=      5-min Rain = 0
KPD3 062128Z 02003KT 13/M01 A3032 RMK A01 T01261005  RH  041%=      5-min Rain = 0
KPD3 062129Z 02003KT 13/M00 A3032 RMK A01 T01261003  RH  041%=      5-min Rain = 0
KPD3 062130Z 04003KT 13/M00 A3032 RMK A01 T01261004  RH  041%=      5-min Rain = 0
KPD3 062131Z 06004KT 13/M00 A3032 RMK A01 T01261003  RH  041%=      5-min Rain = 0
KPD3 062132Z 05004KT 13/M00 A3032 RMK A01 T01271004  RH  041%=      5-min Rain = 0
KPD3 062133Z 04004KT 13/M00 A3032 RMK A01 T01271004  RH  040%=      5-min Rain = 0
KPD3 062134Z 03003KT 13/M01 A3032 RMK A01 T01261005  RH  040%=      5-min Rain = 0
KPD3 062135Z 03003KT 13/M01 A3031 RMK A01 T01251005  RH  041%=      5-min Rain = 0
KPD3 062136Z 03003KT 12/M01 A3031 RMK A01 T01241006  RH  041%=      5-min Rain = 0
KPD3 062137Z 04003KT 12/M01 A3031 RMK A01 T01241006  RH  041%=      5-min Rain = 0
KPD3 062138Z 04003KT 12/M01 A3031 RMK A01 T01241005  RH  041%=      5-min Rain = 0
KPD3 062139Z 04003KT 12/M01 A3032 RMK A01 T01231006  RH  041%=      5-min Rain = 0
KPD3 062140Z 03003KT 12/M01 A3032 RMK A01 T01241005  RH  041%=      5-min Rain = 0
KPD3 062141Z 04001KT 12/M01 A3032 RMK A01 T01231006  RH  041%=      5-min Rain = 0
KPD3 062142Z 07001KT 12/M01 A3032 RMK A01 T01231007  RH  041%=      5-min Rain = 0
KPD3 062143Z 05001KT 12/M01 A3032 RMK A01 T01231007  RH  041%=      5-min Rain = 0
KPD3 062144Z 07001KT 12/M01 A3032 RMK A01 T01231006  RH  041%=      5-min Rain = 0
KPD3 062145Z 04000KT 12/M01 A3032 RMK A01 T01231005  RH  041%=      5-min Rain = 0
KPD3 062146Z 12001KT 12/M01 A3032 RMK A01 T01241006  RH  041%=      5-min Rain = 0
KPD3 062147Z 12001KT 12/M00 A3032 RMK A01 T01241004  RH  041%=      5-min Rain = 0
KPD3 062148Z 07001KT 13/M00 A3032 RMK A01 T01251004  RH  041%=      5-min Rain = 0
KPD3 062149Z 07001KT 13/M01 A3032 RMK A01 T01251005  RH  041%=      5-min Rain = 0
KPD3 062150Z 05002KT 13/M01 A3032 RMK A01 T01251005  RH  041%=      5-min Rain = 0
KPD3 062151Z 08003KT 13/M00 A3032 RMK A01 T01251003  RH  041%=      5-min Rain = 0
KPD3 062152Z 08002KT 13/M00 A3032 RMK A01 T01261004  RH  041%=      5-min Rain = 0
KPD3 062153Z 05003KT 13/M00 A3032 RMK A01 T01261003  RH  041%=      5-min Rain = 0
KPD3 062154Z 05003KT 13/M00 A3032 RMK A01 T01251003  RH  041%=      5-min Rain = 0
KPD3 062155Z 05003KT 13/M00 A3032 RMK A01 T01251004  RH  041%=      5-min Rain = 0
KPD3 062156Z 03002KT 13/M00 A3032 RMK A01 T01251003  RH  041%=      5-min Rain = 0
KPD3 062157Z 01002KT 13/M00 A3032 RMK A01 T01251003  RH  041%=      5-min Rain = 0
KPD3 062158Z 36003KT 13/M00 A3032 RMK A01 T01251004  RH  041%=      5-min Rain = 0
KPD3 062159Z 01003KT 12/M01 A3032 RMK A01 T01241005  RH  041%=      5-min Rain = 0
KPD3 062200Z 02003KT 12/M01 A3032 RMK A01 T01231005  RH  041%=      5-min Rain = 0
KPD3 062201Z 01003KT 12/M01 A3032 RMK A01 T01231005  RH  041%=      5-min Rain = 0
KPD3 062202Z 00001KT 12/M01 A3032 RMK A01 T01231005  RH  041%=      5-min Rain = 0
KPD3 062203Z 35001KT 12/M01 A3032 RMK A01 T01231005  RH  041%=      5-min Rain = 0
KPD3 062204Z 00002KT 12/M01 A3032 RMK A01 T01231005  RH  041%=      5-min Rain = 0
KPD3 062205Z 01002KT 12/M00 A3033 RMK A01 T01231004  RH  042%=      5-min Rain = 0
KPD3 062206Z 02002KT 12/M00 A3033 RMK A01 T01231004  RH  042%=      5-min Rain = 0
KPD3 062207Z 04003KT 12/M00 A3033 RMK A01 T01231003  RH  042%=      5-min Rain = 0
KPD3 062208Z 05003KT 12/M01 A3032 RMK A01 T01231005  RH  041%=      5-min Rain = 0
KPD3 062209Z 05002KT 12/M01 A3033 RMK A01 T01231005  RH  041%=      5-min Rain = 0
KPD3 062210Z 01002KT 12/M01 A3033 RMK A01 T01221005  RH  041%=      5-min Rain = 0
KPD3 062211Z 01003KT 12/M01 A3033 RMK A01 T01221005  RH  042%=      5-min Rain = 0
KPD3 062212Z 01002KT 12/M01 A3033 RMK A01 T01221005  RH  041%=      5-min Rain = 0
KPD3 062213Z 00002KT 12/M00 A3033 RMK A01 T01221004  RH  042%=      5-min Rain = 0
KPD3 062214Z 00002KT 12/M00 A3033 RMK A01 T01221004  RH  042%=      5-min Rain = 0
KPD3 062215Z 01002KT 12/M01 A3033 RMK A01 T01221005  RH  041%=      5-min Rain = 0
KPD3 062216Z 02002KT 12/M01 A3033 RMK A01 T01221005  RH  041%=      5-min Rain = 0
KPD3 062217Z 02001KT 12/M00 A3033 RMK A01 T01221004  RH  042%=      5-min Rain = 0
KPD3 062218Z 03002KT 12/M00 A3033 RMK A01 T01221004  RH  042%=      5-min Rain = 0
KPD3 062219Z 04002KT 12/M00 A3033 RMK A01 T01221004  RH  042%=      5-min Rain = 0
KPD3 062220Z 03001KT 12/M00 A3033 RMK A01 T01221002  RH  042%=      5-min Rain = 0
KPD3 062221Z 02001KT 12/M00 A3033 RMK A01 T01231002  RH  042%=      5-min Rain = 0
KPD3 062222Z 04001KT 12/M00 A3033 RMK A01 T01221002  RH  042%=      5-min Rain = 0
KPD3 062223Z 04002KT 12/M00 A3033 RMK A01 T01221001  RH  042%=      5-min Rain = 0
KPD3 062224Z 06002KT 12/M00 A3033 RMK A01 T01231001  RH  043%=      5-min Rain = 0
KPD3 062225Z 06002KT 12/M00 A3033 RMK A01 T01221001  RH  043%=      5-min Rain = 0
KPD3 062226Z 05002KT 12/M00 A3033 RMK A01 T01221001  RH  043%=      5-min Rain = 0
KPD3 062227Z 05002KT 12/M00 A3033 RMK A01 T01221002  RH  043%=      5-min Rain = 0
KPD3 062228Z 05001KT 12/M00 A3033 RMK A01 T01221002  RH  042%=      5-min Rain = 0
KPD3 062229Z 04001KT 12/M00 A3033 RMK A01 T01221004  RH  042%=      5-min Rain = 0
KPD3 062230Z 05001KT 12/M00 A3033 RMK A01 T01211004  RH  042%=      5-min Rain = 0
KPD3 062231Z 04001KT 12/M00 A3033 RMK A01 T01211003  RH  042%=      5-min Rain = 0
KPD3 062232Z 09001KT 12/M00 A3033 RMK A01 T01211002  RH  043%=      5-min Rain = 0
KPD3 062233Z 09001KT 12/M00 A3033 RMK A01 T01211001  RH  043%=      5-min Rain = 0
KPD3 062234Z 08002KT 12/M00 A3033 RMK A01 T01211001  RH  043%=      5-min Rain = 0
KPD3 062235Z 07001KT 12/M00 A3033 RMK A01 T01201003  RH  043%=      5-min Rain = 0
KPD3 062236Z 07002KT 12/M00 A3033 RMK A01 T01201003  RH  043%=      5-min Rain = 0
KPD3 062237Z 07002KT 12/M00 A3033 RMK A01 T01201003  RH  043%=      5-min Rain = 0
KPD3 062238Z 06002KT 12/M00 A3033 RMK A01 T01191002  RH  043%=      5-min Rain = 0
KPD3 062239Z 07002KT 12/M00 A3033 RMK A01 T01191002  RH  043%=      5-min Rain = 0
KPD3 062240Z 07001KT 12/M00 A3033 RMK A01 T01181001  RH  044%=      5-min Rain = 0
KPD3 062241Z 07001KT 12/M00 A3033 RMK A01 T01181001  RH  044%=      5-min Rain = 0
KPD3 062242Z 07001KT 12/M00 A3033 RMK A01 T01171001  RH  044%=      5-min Rain = 0
KPD3 062243Z 06001KT 12/M00 A3033 RMK A01 T01171001  RH  044%=      5-min Rain = 0
KPD3 062244Z 06001KT 12/M00 A3033 RMK A01 T01171001  RH  044%=      5-min Rain = 0
KPD3 062245Z 08001KT 12/M00 A3033 RMK A01 T01171002  RH  044%=      5-min Rain = 0
KPD3 062246Z 08001KT 12/M00 A3033 RMK A01 T01171002  RH  044%=      5-min Rain = 0
KPD3 062247Z 07001KT 12/M00 A3033 RMK A01 T01171002  RH  044%=      5-min Rain = 0
KPD3 062248Z 07002KT 12/M00 A3033 RMK A01 T01171001  RH  044%=      5-min Rain = 0
KPD3 062249Z 06002KT 12/M00 A3033 RMK A01 T01161001  RH  045%=      5-min Rain = 0
KPD3 062250Z 06003KT 12/00 A3033 RMK A01 T01150000  RH  045%=      5-min Rain = 0
KPD3 062251Z 07002KT 12/00 A3033 RMK A01 T01150001  RH  046%=      5-min Rain = 0
KPD3 062252Z 07003KT 11/00 A3033 RMK A01 T01130002  RH  046%=      5-min Rain = 0
KPD3 062253Z 06003KT 11/00 A3033 RMK A01 T01130003  RH  047%=      5-min Rain = 0
KPD3 062254Z 06003KT 11/00 A3033 RMK A01 T01120003  RH  047%=      5-min Rain = 0
KPD3 062255Z 06003KT 11/00 A3033 RMK A01 T01110003  RH  047%=      5-min Rain = 0
KPD3 062256Z 07004KT 11/00 A3033 RMK A01 T01100003  RH  047%=      5-min Rain = 0
KPD3 062257Z 07004KT 11/00 A3033 RMK A01 T01100003  RH  047%=      5-min Rain = 0
KPD3 062258Z 06004KT 11/00 A3033 RMK A01 T01090002  RH  048%=      5-min Rain = 0
KPD3 062259Z 06004KT 11/00 A3033 RMK A01 T01080003  RH  048%=      5-min Rain = 0
KPD3 062300Z 06004KT 11/00 A3033 RMK A01 T01060003  RH  049%=      5-min Rain = 0
KPD3 062301Z 06004KT 11/00 A3033 RMK A01 T01050003  RH  049%=      5-min Rain = 0
KPD3 062302Z 06003KT 11/00 A3033 RMK A01 T01050003  RH  049%=      5-min Rain = 0
KPD3 062303Z 05004KT 10/00 A3033 RMK A01 T01040003  RH  050%=      5-min Rain = 0
KPD3 062304Z 06004KT 10/00 A3033 RMK A01 T01030003  RH  050%=      5-min Rain = 0
KPD3 062305Z 06004KT 10/00 A3033 RMK A01 T01030003  RH  050%=      5-min Rain = 0
KPD3 062306Z 06004KT 10/00 A3033 RMK A01 T01030003  RH  050%=      5-min Rain = 0
KPD3 062307Z 06003KT 10/00 A3033 RMK A01 T01030003  RH  050%=      5-min Rain = 0
KPD3 062308Z 07003KT 10/00 A3033 RMK A01 T01010003  RH  050%=      5-min Rain = 0
KPD3 062309Z 07003KT 10/00 A3033 RMK A01 T01010003  RH  051%=      5-min Rain = 0
KPD3 062310Z 07003KT 10/00 A3033 RMK A01 T01000003  RH  051%=      5-min Rain = 0
KPD3 062311Z 07003KT 10/00 A3033 RMK A01 T01000004  RH  051%=      5-min Rain = 0
KPD3 062312Z 07004KT 10/00 A3033 RMK A01 T00980003  RH  051%=      5-min Rain = 0
KPD3 062313Z 07004KT 10/00 A3033 RMK A01 T00970003  RH  052%=      5-min Rain = 0
KPD3 062314Z 07004KT 10/00 A3033 RMK A01 T00960003  RH  052%=      5-min Rain = 0
KPD3 062315Z 07004KT 10/00 A3033 RMK A01 T00950003  RH  053%=      5-min Rain = 0
KPD3 062316Z 07004KT 09/00 A3033 RMK A01 T00940002  RH  053%=      5-min Rain = 0
KPD3 062317Z 07004KT 09/00 A3033 RMK A01 T00940003  RH  053%=      5-min Rain = 0
KPD3 062318Z 07003KT 09/00 A3033 RMK A01 T00930003  RH  053%=      5-min Rain = 0
KPD3 062319Z 07003KT 09/00 A3033 RMK A01 T00930003  RH  053%=      5-min Rain = 0
KPD3 062320Z 06004KT 09/00 A3033 RMK A01 T00930003  RH  053%=      5-min Rain = 0
KPD3 062321Z 07005KT 09/00 A3033 RMK A01 T00930003  RH  053%=      5-min Rain = 0
KPD3 062322Z 07005KT 09/00 A3033 RMK A01 T00930003  RH  053%=      5-min Rain = 0
KPD3 062323Z 07005KT 09/00 A3033 RMK A01 T00930003  RH  053%=      5-min Rain = 0
KPD3 062324Z 07006KT 09/00 A3033 RMK A01 T00930003  RH  053%=      5-min Rain = 0
KPD3 062325Z 07006KT 09/00 A3033 RMK A01 T00920003  RH  054%=      5-min Rain = 0
KPD3 062326Z 07006KT 09/00 A3033 RMK A01 T00910003  RH  054%=      5-min Rain = 0
KPD3 062327Z 08006KT 09/00 A3033 RMK A01 T00880003  RH  055%=      5-min Rain = 0
KPD3 062328Z 08006KT 09/00 A3033 RMK A01 T00870003  RH  056%=      5-min Rain = 0
KPD3 062329Z 08006KT 09/00 A3033 RMK A01 T00860003  RH  056%=      5-min Rain = 0
KPD3 062330Z 09006KT 09/00 A3034 RMK A01 T00860003  RH  056%=      5-min Rain = 0
KPD3 062331Z 09005KT 09/00 A3034 RMK A01 T00860003  RH  056%=      5-min Rain = 0
KPD3 062332Z 09005KT 09/00 A3034 RMK A01 T00850003  RH  056%=      5-min Rain = 0
KPD3 062333Z 09006KT 08/00 A3034 RMK A01 T00840003  RH  057%=      5-min Rain = 0
KPD3 062334Z 09006KT 08/00 A3034 RMK A01 T00830002  RH  057%=      5-min Rain = 0
KPD3 062335Z 09006KT 08/00 A3033 RMK A01 T00820002  RH  057%=      5-min Rain = 0
KPD3 062336Z 10006KT 08/00 A3033 RMK A01 T00820002  RH  057%=      5-min Rain = 0
KPD3 062337Z 10006KT 08/00 A3033 RMK A01 T00810002  RH  057%=      5-min Rain = 0
KPD3 062338Z 10006KT 08/00 A3033 RMK A01 T00800002  RH  058%=      5-min Rain = 0
KPD3 062339Z 10006KT 08/00 A3033 RMK A01 T00800001  RH  058%=      5-min Rain = 0
KPD3 062340Z 10006KT 08/00 A3033 RMK A01 T00780001  RH  058%=      5-min Rain = 0
KPD3 062341Z 10007KT 08/00 A3033 RMK A01 T00770001  RH  058%=      5-min Rain = 0
KPD3 062342Z 09007KT 08/00 A3033 RMK A01 T00760001  RH  059%=      5-min Rain = 0
KPD3 062343Z 10007KT 08/00 A3033 RMK A01 T00750001  RH  059%=      5-min Rain = 0
KPD3 062344Z 10006KT 07/00 A3033 RMK A01 T007300-0  RH  060%=      5-min Rain = 0
KPD3 062345Z 10006KT 07/M00 A3033 RMK A01 T00721001  RH  060%=      5-min Rain = 0
KPD3 062346Z 10006KT 07/M00 A3034 RMK A01 T00721002  RH  060%=      5-min Rain = 0
KPD3 062347Z 10006KT 07/M00 A3034 RMK A01 T00711002  RH  060%=      5-min Rain = 0
KPD3 062348Z 11006KT 07/M00 A3034 RMK A01 T00701002  RH  060%=      5-min Rain = 0
KPD3 062349Z 11006KT 07/M00 A3034 RMK A01 T00691003  RH  060%=      5-min Rain = 0
KPD3 062350Z 11006KT 07/M01 A3034 RMK A01 T00681005  RH  060%=      5-min Rain = 0
KPD3 062351Z 11006KT 07/M01 A3034 RMK A01 T00661007  RH  059%=      5-min Rain = 0
KPD3 062352Z 11005KT 07/M01 A3034 RMK A01 T00651008  RH  060%=      5-min Rain = 0
KPD3 062353Z 11006KT 06/M01 A3033 RMK A01 T00631008  RH  060%=      5-min Rain = 0
KPD3 062354Z 11006KT 06/M01 A3033 RMK A01 T00621008  RH  061%=      5-min Rain = 0
KPD3 062355Z 11005KT 06/M01 A3033 RMK A01 T00601008  RH  061%=      5-min Rain = 0
KPD3 062356Z 11005KT 06/M01 A3033 RMK A01 T00591007  RH  062%=      5-min Rain = 0
KPD3 062357Z 11005KT 06/M01 A3033 RMK A01 T00591007  RH  063%=      5-min Rain = 0
KPD3 062358Z 12006KT 06/M01 A3033 RMK A01 T00581007  RH  063%=      5-min Rain = 0
KPD3 062359Z 12006KT 06/M01 A3033 RMK A01 T00581006  RH  063%=      5-min Rain = 0
KPD3 070000Z 12006KT 06/M01 A3033 RMK A01 T00591006  RH  063%=      5-min Rain = 0
KPD3 070001Z 12005KT 06/M01 A3033 RMK A01 T00591006  RH  063%=      5-min Rain = 0
KPD3 070002Z 12005KT 06/M01 A3034 RMK A01 T00581006  RH  063%=      5-min Rain = 0
KPD3 070003Z 12005KT 06/M01 A3034 RMK A01 T00581007  RH  063%=      5-min Rain = 0
KPD3 070004Z 12005KT 06/M01 A3034 RMK A01 T00561007  RH  064%=      5-min Rain = 0
KPD3 070005Z 12005KT 06/M01 A3034 RMK A01 T00551007  RH  064%=      5-min Rain = 0
KPD3 070006Z 12005KT 05/M01 A3034 RMK A01 T00541007  RH  065%=      5-min Rain = 0
KPD3 070007Z 12005KT 05/M01 A3034 RMK A01 T00541006  RH  065%=      5-min Rain = 0
KPD3 070008Z 12004KT 05/M01 A3034 RMK A01 T00541006  RH  066%=      5-min Rain = 0
KPD3 070009Z 12004KT 06/M01 A3034 RMK A01 T00551005  RH  066%=      5-min Rain = 0
KPD3 070010Z 11004KT 06/M01 A3034 RMK A01 T00551005  RH  065%=      5-min Rain = 0
KPD3 070011Z 11004KT 06/M01 A3034 RMK A01 T00561005  RH  065%=      5-min Rain = 0
KPD3 070012Z 11005KT 06/M01 A3034 RMK A01 T00561005  RH  065%=      5-min Rain = 0
KPD3 070013Z 11005KT 06/M00 A3034 RMK A01 T00561004  RH  065%=      5-min Rain = 0
KPD3 070014Z 12005KT 06/M00 A3034 RMK A01 T00571004  RH  065%=      5-min Rain = 0
KPD3 070015Z 12005KT 06/M00 A3034 RMK A01 T00571004  RH  065%=      5-min Rain = 0
KPD3 070016Z 11005KT 06/M01 A3034 RMK A01 T00571005  RH  064%=      5-min Rain = 0
KPD3 070017Z 11005KT 06/M01 A3033 RMK A01 T00571005  RH  064%=      5-min Rain = 0
KPD3 070018Z 11005KT 06/M01 A3033 RMK A01 T00571005  RH  064%=      5-min Rain = 0
KPD3 070019Z 10004KT 06/M01 A3033 RMK A01 T00571005  RH  064%=      5-min Rain = 0
KPD3 070020Z 10004KT 06/M01 A3033 RMK A01 T00561005  RH  065%=      5-min Rain = 0
KPD3 070021Z 10004KT 06/M01 A3033 RMK A01 T00561005  RH  065%=      5-min Rain = 0
KPD3 070022Z 10004KT 06/M01 A3033 RMK A01 T00551005  RH  065%=      5-min Rain = 0
KPD3 070023Z 10004KT 06/M01 A3033 RMK A01 T00551005  RH  065%=      5-min Rain = 0
KPD3 070024Z 10004KT 06/M01 A3033 RMK A01 T00551005  RH  065%=      5-min Rain = 0
KPD3 070025Z 10004KT 06/M01 A3033 RMK A01 T00551005  RH  065%=      5-min Rain = 0
KPD3 070026Z 10004KT 06/M01 A3033 RMK A01 T00551005  RH  065%=      5-min Rain = 0
KPD3 070027Z 10004KT 06/M01 A3033 RMK A01 T00551005  RH  065%=      5-min Rain = 0
KPD3 070028Z 10004KT 06/M01 A3033 RMK A01 T00551005  RH  065%=      5-min Rain = 0
KPD3 070029Z 10005KT 06/M01 A3033 RMK A01 T00551005  RH  065%=      5-min Rain = 0
KPD3 070030Z 09005KT 06/M01 A3033 RMK A01 T00551006  RH  065%=      5-min Rain = 0
KPD3 070031Z 09005KT 06/M01 A3033 RMK A01 T00551005  RH  065%=      5-min Rain = 0
KPD3 070032Z 09004KT 06/M01 A3033 RMK A01 T00561005  RH  065%=      5-min Rain = 0
KPD3 070033Z 08003KT 06/M01 A3033 RMK A01 T00561006  RH  064%=      5-min Rain = 0
KPD3 070034Z 09003KT 05/M01 A3034 RMK A01 T00531007  RH  065%=      5-min Rain = 0
KPD3 070035Z 09003KT 05/M01 A3034 RMK A01 T00501007  RH  067%=      5-min Rain = 0
KPD3 070036Z 09002KT 05/M01 A3034 RMK A01 T00491006  RH  067%=      5-min Rain = 0
KPD3 070037Z 08002KT 05/M01 A3034 RMK A01 T00491005  RH  068%=      5-min Rain = 0
KPD3 070038Z 09002KT 05/M00 A3034 RMK A01 T00501004  RH  068%=      5-min Rain = 0
KPD3 070039Z 10002KT 05/M01 A3034 RMK A01 T00501005  RH  068%=      5-min Rain = 0
KPD3 070040Z 10002KT 05/M00 A3034 RMK A01 T00501004  RH  068%=      5-min Rain = 0
KPD3 070041Z 10001KT 05/M00 A3035 RMK A01 T00501004  RH  068%=      5-min Rain = 0
KPD3 070042Z 10002KT 05/M00 A3035 RMK A01 T00511004  RH  067%=      5-min Rain = 0
KPD3 070043Z 10002KT 05/M00 A3035 RMK A01 T00531004  RH  067%=      5-min Rain = 0
KPD3 070044Z 11002KT 06/M00 A3035 RMK A01 T00551004  RH  066%=      5-min Rain = 0
KPD3 070045Z 12002KT 06/M00 A3035 RMK A01 T00561004  RH  065%=      5-min Rain = 0
KPD3 070046Z 12002KT 06/M01 A3034 RMK A01 T00551006  RH  065%=      5-min Rain = 0
KPD3 070047Z 12003KT 05/M01 A3034 RMK A01 T00491011  RH  065%=      5-min Rain = 0
KPD3 070048Z 11003KT 05/M01 A3034 RMK A01 T00461012  RH  066%=      5-min Rain = 0
KPD3 070049Z 11002KT 05/M01 A3034 RMK A01 T00451010  RH  067%=      5-min Rain = 0
KPD3 070050Z 12002KT 05/M01 A3034 RMK A01 T00451009  RH  068%=      5-min Rain = 0
KPD3 070051Z 11002KT 05/M01 A3034 RMK A01 T00451008  RH  069%=      5-min Rain = 0
KPD3 070052Z 11002KT 04/M01 A3034 RMK A01 T00441007  RH  069%=      5-min Rain = 0
KPD3 070053Z 11002KT 04/M01 A3034 RMK A01 T00441007  RH  069%=      5-min Rain = 0
KPD3 070054Z 11002KT 05/M01 A3034 RMK A01 T00461006  RH  069%=      5-min Rain = 0
KPD3 070055Z 11003KT 05/M01 A3034 RMK A01 T00471005  RH  069%=      5-min Rain = 0
KPD3 070056Z 11002KT 05/M01 A3034 RMK A01 T00471006  RH  068%=      5-min Rain = 0
KPD3 070057Z 11002KT 05/M01 A3034 RMK A01 T00471007  RH  068%=      5-min Rain = 0
KPD3 070058Z 11002KT 05/M01 A3034 RMK A01 T00471009  RH  067%=      5-min Rain = 0
KPD3 070059Z 10002KT 05/M01 A3034 RMK A01 T00451010  RH  068%=      5-min Rain = 0
KPD3 070100Z 11002KT 04/M01 A3034 RMK A01 T00431009  RH  069%=      5-min Rain = 0
KPD3 070101Z 11002KT 04/M01 A3034 RMK A01 T00431008  RH  069%=      5-min Rain = 0
KPD3 070102Z 12001KT 04/M01 A3034 RMK A01 T00441008  RH  069%=      5-min Rain = 0
KPD3 070103Z 12001KT 04/M01 A3034 RMK A01 T00441008  RH  069%=      5-min Rain = 0
KPD3 070104Z 13000KT 05/M01 A3034 RMK A01 T00451007  RH  069%=      5-min Rain = 0
KPD3 070105Z 16001KT 05/M01 A3035 RMK A01 T00461007  RH  069%=      5-min Rain = 0
KPD3 070106Z 16001KT 05/M01 A3035 RMK A01 T00461007  RH  068%=      5-min Rain = 0
KPD3 070107Z 17001KT 05/M01 A3035 RMK A01 T00461007  RH  069%=      5-min Rain = 0
KPD3 070108Z 19001KT 05/M01 A3035 RMK A01 T00471006  RH  069%=      5-min Rain = 0
KPD3 070109Z 19002KT 05/M01 A3035 RMK A01 T00471007  RH  068%=      5-min Rain = 0
KPD3 070110Z 19002KT 04/M01 A3035 RMK A01 T00441010  RH  068%=      5-min Rain = 0
KPD3 070111Z 20001KT 04/M01 A3034 RMK A01 T00391013  RH  069%=      5-min Rain = 0
KPD3 070112Z 19001KT 04/M01 A3034 RMK A01 T00351012  RH  071%=      5-min Rain = 0
KPD3 070113Z 20001KT 03/M01 A3034 RMK A01 T00311012  RH  073%=      5-min Rain = 0
KPD3 070114Z 19003KT 03/M01 A3034 RMK A01 T00291012  RH  074%=      5-min Rain = 0
KPD3 070115Z 19003KT 03/M01 A3034 RMK A01 T00261013  RH  075%=      5-min Rain = 0
KPD3 070116Z 20003KT 02/M02 A3034 RMK A01 T00241015  RH  076%=      5-min Rain = 0
KPD3 070117Z 20002KT 02/M02 A3034 RMK A01 T00221015  RH  077%=      5-min Rain = 0
KPD3 070118Z 19002KT 02/M01 A3034 RMK A01 T00211014  RH  078%=      5-min Rain = 0
KPD3 070119Z 19002KT 02/M01 A3034 RMK A01 T00201013  RH  079%=      5-min Rain = 0
KPD3 070120Z 19002KT 02/M01 A3034 RMK A01 T00191014  RH  079%=      5-min Rain = 0
KPD3 070121Z 20002KT 02/M02 A3034 RMK A01 T00181015  RH  079%=      5-min Rain = 0
KPD3 070122Z 20001KT 02/M02 A3034 RMK A01 T00161016  RH  080%=      5-min Rain = 0
KPD3 070123Z 19001KT 02/M02 A3034 RMK A01 T00151016  RH  080%=      5-min Rain = 0
KPD3 070124Z 18000KT 02/M02 A3034 RMK A01 T00151015  RH  081%=      5-min Rain = 0
KPD3 070125Z 00000KT 02/M02 A3034 RMK A01 T00151015  RH  080%=      5-min Rain = 0
KPD3 070126Z 00000KT 02/M02 A3034 RMK A01 T00151015  RH  081%=      5-min Rain = 0
KPD3 070127Z 00000KT 01/M02 A3034 RMK A01 T00141015  RH  081%=      5-min Rain = 0
KPD3 070128Z 30000KT 01/M01 A3034 RMK A01 T00141014  RH  082%=      5-min Rain = 0
KPD3 070129Z 30001KT 01/M01 A3034 RMK A01 T00141013  RH  082%=      5-min Rain = 0
KPD3 070130Z 30001KT 02/M01 A3034 RMK A01 T00151012  RH  082%=      5-min Rain = 0
KPD3 070131Z 30001KT 02/M01 A3034 RMK A01 T00161011  RH  082%=      5-min Rain = 0
KPD3 070132Z 30001KT 02/M01 A3034 RMK A01 T00171011  RH  082%=      5-min Rain = 0
KPD3 070133Z 29001KT 02/M01 A3034 RMK A01 T00181011  RH  081%=      5-min Rain = 0
KPD3 070134Z 28001KT 02/M01 A3034 RMK A01 T00181011  RH  081%=      5-min Rain = 0
KPD3 070135Z 28001KT 02/M01 A3034 RMK A01 T00191011  RH  081%=      5-min Rain = 0
KPD3 070136Z 28002KT 02/M01 A3034 RMK A01 T00191011  RH  081%=      5-min Rain = 0
KPD3 070137Z 28002KT 02/M01 A3035 RMK A01 T00211009  RH  081%=      5-min Rain = 0
KPD3 070138Z 28001KT 02/M01 A3035 RMK A01 T00221009  RH  080%=      5-min Rain = 0
KPD3 070139Z 27001KT 02/M01 A3034 RMK A01 T00231009  RH  079%=      5-min Rain = 0
KPD3 070140Z 27001KT 02/M01 A3034 RMK A01 T00241010  RH  079%=      5-min Rain = 0
KPD3 070141Z 26001KT 02/M01 A3034 RMK A01 T00231010  RH  079%=      5-min Rain = 0
KPD3 070142Z 26001KT 02/M01 A3034 RMK A01 T00231010  RH  079%=      5-min Rain = 0
KPD3 070143Z 27001KT 02/M01 A3034 RMK A01 T00241010  RH  079%=      5-min Rain = 0
KPD3 070144Z 27000KT 03/M01 A3035 RMK A01 T00251008  RH  078%=      5-min Rain = 0
KPD3 070145Z 26001KT 03/M01 A3035 RMK A01 T00261009  RH  078%=      5-min Rain = 0
KPD3 070146Z 24001KT 03/M01 A3035 RMK A01 T00271008  RH  078%=      5-min Rain = 0
KPD3 070147Z 23001KT 03/M01 A3035 RMK A01 T00301006  RH  077%=      5-min Rain = 0
KPD3 070148Z 22001KT 03/M01 A3035 RMK A01 T00331005  RH  076%=      5-min Rain = 0
KPD3 070149Z 22001KT 04/M01 A3034 RMK A01 T00351006  RH  075%=      5-min Rain = 0
KPD3 070150Z 22001KT 03/M01 A3034 RMK A01 T00341008  RH  074%=      5-min Rain = 0
KPD3 070151Z 22001KT 03/M01 A3034 RMK A01 T00321009  RH  075%=      5-min Rain = 0
KPD3 070152Z 22001KT 03/M01 A3034 RMK A01 T00311009  RH  075%=      5-min Rain = 0
KPD3 070153Z 22001KT 03/M01 A3034 RMK A01 T00301009  RH  076%=      5-min Rain = 0
KPD3 070154Z 22001KT 03/M01 A3035 RMK A01 T00281009  RH  076%=      5-min Rain = 0
KPD3 070155Z 22001KT 03/M01 A3035 RMK A01 T00281009  RH  077%=      5-min Rain = 0
KPD3 070156Z 22001KT 03/M01 A3035 RMK A01 T00251011  RH  077%=      5-min Rain = 0
KPD3 070157Z 22001KT 02/M01 A3035 RMK A01 T00231011  RH  078%=      5-min Rain = 0
KPD3 070158Z 22001KT 02/M01 A3035 RMK A01 T00211012  RH  079%=      5-min Rain = 0
KPD3 070159Z 23001KT 02/M01 A3035 RMK A01 T00191012  RH  080%=      5-min Rain = 0
KPD3 070200Z 25001KT 02/M01 A3035 RMK A01 T00181012  RH  081%=      5-min Rain = 0
KPD3 070201Z 25001KT 02/M01 A3035 RMK A01 T00171011  RH  081%=      5-min Rain = 0
KPD3 070202Z 25001KT 02/M01 A3035 RMK A01 T00171011  RH  082%=      5-min Rain = 0
KPD3 070203Z 25002KT 02/M01 A3035 RMK A01 T00171010  RH  082%=      5-min Rain = 0
KPD3 070204Z 26002KT 02/M01 A3035 RMK A01 T00161010  RH  083%=      5-min Rain = 0
KPD3 070205Z 26001KT 02/M01 A3035 RMK A01 T00161010  RH  083%=      5-min Rain = 0
KPD3 070206Z 26001KT 02/M01 A3035 RMK A01 T00161010  RH  083%=      5-min Rain = 0
KPD3 070207Z 25001KT 02/M01 A3035 RMK A01 T00151011  RH  083%=      5-min Rain = 0
KPD3 070208Z 25002KT 02/M01 A3035 RMK A01 T00151011  RH  083%=      5-min Rain = 0
KPD3 070209Z 26002KT 02/M01 A3035 RMK A01 T00151011  RH  082%=      5-min Rain = 0
KPD3 070210Z 25002KT 02/M01 A3035 RMK A01 T00151011  RH  083%=      5-min Rain = 0
KPD3 070211Z 24002KT 02/M01 A3035 RMK A01 T00151011  RH  083%=      5-min Rain = 0
KPD3 070212Z 25002KT 02/M01 A3035 RMK A01 T00151011  RH  083%=      5-min Rain = 0
KPD3 070213Z 24002KT 01/M01 A3035 RMK A01 T00141011  RH  083%=      5-min Rain = 0
KPD3 070214Z 25002KT 01/M01 A3035 RMK A01 T00141012  RH  083%=      5-min Rain = 0
KPD3 070215Z 25002KT 01/M01 A3035 RMK A01 T00141011  RH  083%=      5-min Rain = 0
KPD3 070216Z 26002KT 01/M01 A3035 RMK A01 T00141011  RH  083%=      5-min Rain = 0
KPD3 070217Z 25002KT 01/M01 A3035 RMK A01 T00141011  RH  083%=      5-min Rain = 0
KPD3 070218Z 25001KT 02/M01 A3035 RMK A01 T00151011  RH  083%=      5-min Rain = 0
KPD3 070219Z 25001KT 02/M01 A3035 RMK A01 T00151010  RH  083%=      5-min Rain = 0
KPD3 070220Z 24002KT 02/M01 A3035 RMK A01 T00161010  RH  083%=      5-min Rain = 0
KPD3 070221Z 24002KT 02/M01 A3035 RMK A01 T00161011  RH  083%=      5-min Rain = 0
KPD3 070222Z 24002KT 02/M01 A3035 RMK A01 T00161011  RH  082%=      5-min Rain = 0
KPD3 070223Z 24001KT 02/M01 A3035 RMK A01 T00171010  RH  083%=      5-min Rain = 0
KPD3 070224Z 24001KT 02/M01 A3035 RMK A01 T00171009  RH  083%=      5-min Rain = 0
KPD3 070225Z 24001KT 02/M01 A3035 RMK A01 T00181010  RH  082%=      5-min Rain = 0
KPD3 070226Z 24001KT 02/M01 A3035 RMK A01 T00181010  RH  082%=      5-min Rain = 0
KPD3 070227Z 24001KT 02/M01 A3035 RMK A01 T00171010  RH  082%=      5-min Rain = 0
KPD3 070228Z 24001KT 02/M01 A3034 RMK A01 T00161011  RH  082%=      5-min Rain = 0
KPD3 070229Z 24001KT 02/M01 A3034 RMK A01 T00161010  RH  083%=      5-min Rain = 0
KPD3 070230Z 27001KT 02/M01 A3034 RMK A01 T00151010  RH  083%=      5-min Rain = 0
KPD3 070231Z 27000KT 02/M01 A3034 RMK A01 T00151010  RH  083%=      5-min Rain = 0
KPD3 070232Z 25001KT 02/M01 A3034 RMK A01 T00151011  RH  083%=      5-min Rain = 0
KPD3 070233Z 25001KT 01/M01 A3034 RMK A01 T00141011  RH  083%=      5-min Rain = 0
KPD3 070234Z 24001KT 01/M01 A3035 RMK A01 T00141011  RH  084%=      5-min Rain = 0
KPD3 070235Z 24001KT 01/M01 A3035 RMK A01 T00131011  RH  084%=      5-min Rain = 0
KPD3 070236Z 23001KT 01/M01 A3034 RMK A01 T00131011  RH  084%=      5-min Rain = 0
KPD3 070237Z 24001KT 01/M01 A3034 RMK A01 T00131011  RH  084%=      5-min Rain = 0
KPD3 070238Z 24001KT 01/M01 A3035 RMK A01 T00121011  RH  085%=      5-min Rain = 0
KPD3 070239Z 24001KT 01/M01 A3035 RMK A01 T00121011  RH  084%=      5-min Rain = 0
KPD3 070240Z 24001KT 01/M01 A3035 RMK A01 T00131011  RH  084%=      5-min Rain = 0
KPD3 070241Z 23001KT 01/M01 A3035 RMK A01 T00131012  RH  084%=      5-min Rain = 0
KPD3 070242Z 25001KT 01/M01 A3035 RMK A01 T00121011  RH  084%=      5-min Rain = 0
KPD3 070243Z 25001KT 01/M01 A3035 RMK A01 T00111012  RH  085%=      5-min Rain = 0
KPD3 070244Z 25001KT 01/M01 A3035 RMK A01 T00121011  RH  085%=      5-min Rain = 0
KPD3 070245Z 25001KT 01/M01 A3035 RMK A01 T00121011  RH  085%=      5-min Rain = 0
KPD3 070246Z 24002KT 01/M01 A3035 RMK A01 T00121010  RH  085%=      5-min Rain = 0
KPD3 070247Z 24002KT 01/M01 A3035 RMK A01 T00121011  RH  085%=      5-min Rain = 0
KPD3 070248Z 24002KT 01/M01 A3035 RMK A01 T00121011  RH  085%=      5-min Rain = 0
KPD3 070249Z 24002KT 01/M01 A3035 RMK A01 T00111012  RH  085%=      5-min Rain = 0
KPD3 070250Z 24002KT 01/M01 A3035 RMK A01 T00101013  RH  085%=      5-min Rain = 0
KPD3 070251Z 24002KT 01/M01 A3035 RMK A01 T00091012  RH  086%=      5-min Rain = 0
KPD3 070252Z 24002KT 01/M01 A3035 RMK A01 T00111009  RH  087%=      5-min Rain = 0
KPD3 070253Z 25002KT 01/M01 A3035 RMK A01 T00131008  RH  086%=      5-min Rain = 0
KPD3 070254Z 25002KT 01/M01 A3035 RMK A01 T00141008  RH  086%=      5-min Rain = 0
KPD3 070255Z 24002KT 01/M01 A3035 RMK A01 T00141009  RH  085%=      5-min Rain = 0
KPD3 070256Z 25002KT 01/M01 A3035 RMK A01 T00141009  RH  085%=      5-min Rain = 0
KPD3 070257Z 26002KT 01/M01 A3035 RMK A01 T00131011  RH  084%=      5-min Rain = 0
KPD3 070258Z 26002KT 01/M01 A3035 RMK A01 T00111013  RH  084%=      5-min Rain = 0
KPD3 070259Z 26002KT 01/M02 A3035 RMK A01 T00101015  RH  084%=      5-min Rain = 0
KPD3 070300Z 26001KT 01/M02 A3035 RMK A01 T00081015  RH  085%=      5-min Rain = 0
KPD3 070301Z 26001KT 01/M01 A3035 RMK A01 T00081014  RH  085%=      5-min Rain = 0
KPD3 070302Z 26001KT 01/M01 A3035 RMK A01 T00081014  RH  086%=      5-min Rain = 0
KPD3 070303Z 26002KT 01/M01 A3035 RMK A01 T00081013  RH  086%=      5-min Rain = 0
KPD3 070304Z 25002KT 01/M01 A3035 RMK A01 T00081013  RH  086%=      5-min Rain = 0
KPD3 070305Z 25002KT 01/M01 A3035 RMK A01 T00081013  RH  086%=      5-min Rain = 0
KPD3 070306Z 25002KT 01/M01 A3035 RMK A01 T00091013  RH  086%=      5-min Rain = 0
KPD3 070307Z 26002KT 01/M01 A3035 RMK A01 T00081013  RH  086%=      5-min Rain = 0
KPD3 070308Z 27002KT 01/M01 A3035 RMK A01 T00071014  RH  086%=      5-min Rain = 0
KPD3 070309Z 27002KT 01/M01 A3035 RMK A01 T00061014  RH  086%=      5-min Rain = 0
KPD3 070310Z 28002KT 01/M02 A3035 RMK A01 T00051015  RH  087%=      5-min Rain = 0
KPD3 070311Z 29001KT 00/M02 A3035 RMK A01 T00041016  RH  087%=      5-min Rain = 0
KPD3 070312Z 29001KT 00/M02 A3035 RMK A01 T00021018  RH  086%=      5-min Rain = 0
KPD3 070313Z 29001KT 00/M02 A3035 RMK A01 T00011019  RH  086%=      5-min Rain = 0
KPD3 070314Z 29001KT 00/M02 A3035 RMK A01 T00011018  RH  087%=      5-min Rain = 0
KPD3 070315Z 29001KT 00/M02 A3035 RMK A01 T00011018  RH  088%=      5-min Rain = 0
KPD3 070316Z 29001KT 00/M02 A3035 RMK A01 T00011016  RH  088%=      5-min Rain = 0
KPD3 070317Z 29001KT 00/M02 A3035 RMK A01 T00011016  RH  088%=      5-min Rain = 0
KPD3 070318Z 28001KT 00/M02 A3034 RMK A01 T00021015  RH  089%=      5-min Rain = 0
KPD3 070319Z 27001KT 00/M02 A3034 RMK A01 T00021015  RH  088%=      5-min Rain = 0
KPD3 070320Z 27001KT 00/M02 A3034 RMK A01 T00031015  RH  088%=      5-min Rain = 0
KPD3 070321Z 27001KT 00/M02 A3034 RMK A01 T00031015  RH  088%=      5-min Rain = 0
KPD3 070322Z 27001KT 00/M02 A3034 RMK A01 T00031015  RH  088%=      5-min Rain = 0
KPD3 070323Z 27001KT 00/M02 A3034 RMK A01 T00031016  RH  087%=      5-min Rain = 0
KPD3 070324Z 27001KT 00/M02 A3034 RMK A01 T00021017  RH  087%=      5-min Rain = 0
KPD3 070325Z 27001KT 00/M02 A3034 RMK A01 T00011018  RH  087%=      5-min Rain = 0
KPD3 070326Z 27001KT 00/M02 A3034 RMK A01 T00011018  RH  088%=      5-min Rain = 0
KPD3 070327Z 27001KT 00/02 A3034 RMK A01 T00-00-18  RH  088%=      5-min Rain = 0
KPD3 070328Z 27000KT M00/M02 A3034 RMK A01 T10011018  RH  088%=      5-min Rain = 0
KPD3 070329Z 00000KT M00/M02 A3034 RMK A01 T10011019  RH  088%=      5-min Rain = 0
KPD3 070330Z 00000KT M00/M02 A3034 RMK A01 T10011019  RH  088%=      5-min Rain = 0
KPD3 070331Z 00000KT M00/M02 A3034 RMK A01 T10011018  RH  088%=      5-min Rain = 0
KPD3 070332Z 00000KT M00/M02 A3034 RMK A01 T10011018  RH  088%=      5-min Rain = 0
KPD3 070333Z 00000KT M00/M02 A3034 RMK A01 T10011018  RH  088%=      5-min Rain = 0
KPD3 070334Z 27000KT M00/M02 A3034 RMK A01 T10011018  RH  089%=      5-min Rain = 0
KPD3 070335Z 27000KT M00/M02 A3034 RMK A01 T10011018  RH  089%=      5-min Rain = 0
KPD3 070336Z 27001KT M00/M02 A3034 RMK A01 T10011018  RH  088%=      5-min Rain = 0
KPD3 070337Z 27001KT M00/M02 A3034 RMK A01 T10011018  RH  088%=      5-min Rain = 0
KPD3 070338Z 27001KT M00/M02 A3034 RMK A01 T10021021  RH  088%=      5-min Rain = 0
KPD3 070339Z 27001KT M00/M02 A3034 RMK A01 T10031020  RH  088%=      5-min Rain = 0
KPD3 070340Z 27001KT M00/M02 A3034 RMK A01 T10041021  RH  089%=      5-min Rain = 0
KPD3 070341Z 27001KT M00/M02 A3034 RMK A01 T10041021  RH  089%=      5-min Rain = 0
KPD3 070342Z 27001KT M01/M02 A3034 RMK A01 T10051020  RH  090%=      5-min Rain = 0
KPD3 070343Z 27001KT M00/M02 A3034 RMK A01 T10041018  RH  090%=      5-min Rain = 0
KPD3 070344Z 27001KT M00/M02 A3035 RMK A01 T10041017  RH  090%=      5-min Rain = 0
KPD3 070345Z 28002KT M00/M02 A3035 RMK A01 T10041018  RH  090%=      5-min Rain = 0
KPD3 070346Z 29003KT M01/M02 A3035 RMK A01 T10051020  RH  090%=      5-min Rain = 0
KPD3 070347Z 29003KT M01/M02 A3034 RMK A01 T10061021  RH  089%=      5-min Rain = 0
KPD3 070348Z 30003KT M01/M02 A3034 RMK A01 T10071022  RH  089%=      5-min Rain = 0
KPD3 070349Z 30003KT M01/M02 A3034 RMK A01 T10081023  RH  090%=      5-min Rain = 0
KPD3 070350Z 29003KT M01/M02 A3034 RMK A01 T10091023  RH  090%=      5-min Rain = 0
KPD3 070351Z 28003KT M01/M02 A3034 RMK A01 T10101023  RH  091%=      5-min Rain = 0
KPD3 070352Z 28003KT M01/M02 A3034 RMK A01 T10101023  RH  091%=      5-min Rain = 0
KPD3 070353Z 27003KT M01/M02 A3034 RMK A01 T10101022  RH  092%=      5-min Rain = 0
KPD3 070354Z 26003KT M01/M02 A3034 RMK A01 T10101021  RH  092%=      5-min Rain = 0
KPD3 070355Z 26003KT M01/M02 A3034 RMK A01 T10091020  RH  092%=      5-min Rain = 0
KPD3 070356Z 26003KT M01/M02 A3034 RMK A01 T10091020  RH  092%=      5-min Rain = 0
KPD3 070357Z 26003KT M01/M02 A3034 RMK A01 T10081019  RH  092%=      5-min Rain = 0
KPD3 070358Z 26003KT M01/M02 A3034 RMK A01 T10081019  RH  092%=      5-min Rain = 0
KPD3 070359Z 26003KT M01/M02 A3034 RMK A01 T10081020  RH  092%=      5-min Rain = 0
KPD3 070400Z 26003KT M01/M02 A3035 RMK A01 T10081020  RH  092%=      5-min Rain = 0
KPD3 070401Z 26003KT M01/M02 A3035 RMK A01 T10081020  RH  092%=      5-min Rain = 0
KPD3 070402Z 27002KT M01/M02 A3035 RMK A01 T10081020  RH  092%=      5-min Rain = 0
KPD3 070403Z 27002KT M01/M02 A3035 RMK A01 T10081020  RH  092%=      5-min Rain = 0
KPD3 070404Z 28003KT M01/M02 A3035 RMK A01 T10091021  RH  092%=      5-min Rain = 0
KPD3 070405Z 29003KT M01/M02 A3035 RMK A01 T10091020  RH  092%=      5-min Rain = 0
KPD3 070406Z 29003KT M01/M02 A3034 RMK A01 T10091021  RH  092%=      5-min Rain = 0
KPD3 070407Z 29003KT M01/M02 A3034 RMK A01 T10091021  RH  092%=      5-min Rain = 0
KPD3 070408Z 29003KT M01/M02 A3034 RMK A01 T10101023  RH  091%=      5-min Rain = 0
KPD3 070409Z 29002KT M01/M02 A3034 RMK A01 T10111023  RH  091%=      5-min Rain = 0
KPD3 070410Z 29002KT M01/M02 A3034 RMK A01 T10111024  RH  091%=      5-min Rain = 0
KPD3 070411Z 29002KT M01/M02 A3034 RMK A01 T10121024  RH  091%=      5-min Rain = 0
KPD3 070412Z 29002KT M01/M02 A3034 RMK A01 T10121024  RH  092%=      5-min Rain = 0
KPD3 070413Z 29002KT M01/M02 A3034 RMK A01 T10121024  RH  092%=      5-min Rain = 0
KPD3 070414Z 29002KT M01/M02 A3034 RMK A01 T10121024  RH  092%=      5-min Rain = 0
KPD3 070415Z 28002KT M01/M02 A3034 RMK A01 T10121023  RH  092%=      5-min Rain = 0
KPD3 070416Z 28002KT M01/M02 A3034 RMK A01 T10121023  RH  092%=      5-min Rain = 0
KPD3 070417Z 28002KT M01/M02 A3035 RMK A01 T10111022  RH  092%=      5-min Rain = 0
KPD3 070418Z 27002KT M01/M02 A3035 RMK A01 T10091020  RH  092%=      5-min Rain = 0
KPD3 070419Z 28002KT M01/M02 A3035 RMK A01 T10081020  RH  092%=      5-min Rain = 0
KPD3 070420Z 28002KT M01/M02 A3035 RMK A01 T10081020  RH  092%=      5-min Rain = 0
KPD3 070421Z 28002KT M01/M02 A3035 RMK A01 T10081021  RH  091%=      5-min Rain = 0
KPD3 070422Z 28002KT M01/M02 A3035 RMK A01 T10081022  RH  091%=      5-min Rain = 0
KPD3 070423Z 28002KT M01/M02 A3035 RMK A01 T10091023  RH  091%=      5-min Rain = 0
KPD3 070424Z 28002KT M01/M02 A3035 RMK A01 T10101023  RH  091%=      5-min Rain = 0
KPD3 070425Z 28002KT M01/M02 A3035 RMK A01 T10101024  RH  091%=      5-min Rain = 0
KPD3 070426Z 28002KT M01/M03 A3035 RMK A01 T10111025  RH  090%=      5-min Rain = 0
KPD3 070427Z 29002KT M01/M03 A3035 RMK A01 T10121026  RH  090%=      5-min Rain = 0
KPD3 070428Z 30002KT M01/M03 A3035 RMK A01 T10131026  RH  091%=      5-min Rain = 0
KPD3 070429Z 30002KT M01/M03 A3035 RMK A01 T10131026  RH  091%=      5-min Rain = 0
KPD3 070430Z 30002KT M01/M03 A3035 RMK A01 T10131026  RH  091%=      5-min Rain = 0
KPD3 070431Z 30002KT M01/M03 A3035 RMK A01 T10131026  RH  091%=      5-min Rain = 0
KPD3 070432Z 30002KT M01/M03 A3035 RMK A01 T10141026  RH  091%=      5-min Rain = 0
KPD3 070433Z 30002KT M01/M03 A3035 RMK A01 T10141026  RH  092%=      5-min Rain = 0
KPD3 070434Z 30002KT M01/M03 A3035 RMK A01 T10141026  RH  092%=      5-min Rain = 0
KPD3 070435Z 29002KT M01/M03 A3035 RMK A01 T10141025  RH  092%=      5-min Rain = 0
KPD3 070436Z 29002KT M01/M02 A3035 RMK A01 T10131024  RH  092%=      5-min Rain = 0
KPD3 070437Z 29002KT M01/M02 A3035 RMK A01 T10131024  RH  092%=      5-min Rain = 0
KPD3 070438Z 30002KT M01/M02 A3035 RMK A01 T10131024  RH  092%=      5-min Rain = 0
KPD3 070439Z 30002KT M01/M02 A3035 RMK A01 T10131024  RH  092%=      5-min Rain = 0
KPD3 070440Z 30002KT M01/M02 A3035 RMK A01 T10131024  RH  092%=      5-min Rain = 0
KPD3 070441Z 31002KT M01/M02 A3035 RMK A01 T10141024  RH  092%=      5-min Rain = 0
KPD3 070442Z 31002KT M02/M03 A3035 RMK A01 T10151025  RH  092%=      5-min Rain = 0
KPD3 070443Z 31002KT M02/M03 A3035 RMK A01 T10151026  RH  092%=      5-min Rain = 0
KPD3 070444Z 31002KT M02/M03 A3035 RMK A01 T10161027  RH  092%=      5-min Rain = 0
KPD3 070445Z 31002KT M02/M03 A3035 RMK A01 T10171028  RH  092%=      5-min Rain = 0
KPD3 070446Z 31002KT M02/M03 A3035 RMK A01 T10171028  RH  092%=      5-min Rain = 0
KPD3 070447Z 31002KT M02/M03 A3035 RMK A01 T10181028  RH  092%=      5-min Rain = 0
KPD3 070448Z 31002KT M02/M03 A3034 RMK A01 T10181028  RH  093%=      5-min Rain = 0
KPD3 070449Z 31002KT M02/M03 A3034 RMK A01 T10181027  RH  093%=      5-min Rain = 0
KPD3 070450Z 31002KT M02/M03 A3035 RMK A01 T10181027  RH  094%=      5-min Rain = 0
KPD3 070451Z 31002KT M02/M03 A3035 RMK A01 T10181027  RH  094%=      5-min Rain = 0
KPD3 070452Z 31003KT M02/M03 A3035 RMK A01 T10171025  RH  094%=      5-min Rain = 0
KPD3 070453Z 31002KT M02/M03 A3035 RMK A01 T10171025  RH  094%=      5-min Rain = 0
KPD3 070454Z 31002KT M02/M03 A3035 RMK A01 T10171025  RH  094%=      5-min Rain = 0
KPD3 070455Z 31002KT M02/M03 A3035 RMK A01 T10171025  RH  094%=      5-min Rain = 0
KPD3 070456Z 30002KT M02/M03 A3035 RMK A01 T10161025  RH  094%=      5-min Rain = 0
KPD3 070457Z 30001KT M02/M03 A3034 RMK A01 T10161025  RH  094%=      5-min Rain = 0
KPD3 070458Z 30001KT M02/M02 A3034 RMK A01 T10161024  RH  094%=      5-min Rain = 0
KPD3 070459Z 28001KT M02/M02 A3034 RMK A01 T10161024  RH  094%=      5-min Rain = 0
KPD3 070500Z 28002KT M02/M03 A3034 RMK A01 T10161025  RH  094%=      5-min Rain = 0
KPD3 070501Z 28002KT M02/M03 A3034 RMK A01 T10151025  RH  093%=      5-min Rain = 0
KPD3 070502Z 28002KT M02/M03 A3034 RMK A01 T10161026  RH  093%=      5-min Rain = 0
KPD3 070503Z 29002KT M02/M03 A3034 RMK A01 T10171027  RH  093%=      5-min Rain = 0
KPD3 070504Z 31002KT M02/M03 A3035 RMK A01 T10171028  RH  093%=      5-min Rain = 0
KPD3 070505Z 32003KT M02/M03 A3035 RMK A01 T10181028  RH  093%=      5-min Rain = 0
KPD3 070506Z 32003KT M02/M03 A3035 RMK A01 T10181029  RH  093%=      5-min Rain = 0
KPD3 070507Z 32003KT M02/M03 A3035 RMK A01 T10191030  RH  093%=      5-min Rain = 0
KPD3 070508Z 32003KT M02/M03 A3035 RMK A01 T10201031  RH  093%=      5-min Rain = 0
KPD3 070509Z 32003KT M02/M03 A3035 RMK A01 T10211031  RH  093%=      5-min Rain = 0
KPD3 070510Z 31003KT M02/M03 A3035 RMK A01 T10221032  RH  093%=      5-min Rain = 0
KPD3 070511Z 31003KT M02/M03 A3035 RMK A01 T10221032  RH  093%=      5-min Rain = 0
KPD3 070512Z 30002KT M02/M03 A3034 RMK A01 T10221031  RH  094%=      5-min Rain = 0
KPD3 070513Z 28002KT M02/M03 A3034 RMK A01 T10221030  RH  094%=      5-min Rain = 0
KPD3 070514Z 26002KT M02/M03 A3034 RMK A01 T10211028  RH  095%=      5-min Rain = 0
KPD3 070515Z 25002KT M02/M03 A3034 RMK A01 T10201028  RH  095%=      5-min Rain = 0
KPD3 070516Z 25003KT M02/M03 A3034 RMK A01 T10201028  RH  094%=      5-min Rain = 0
KPD3 070517Z 25002KT M02/M03 A3034 RMK A01 T10201028  RH  094%=      5-min Rain = 0
KPD3 070518Z 25002KT M02/M03 A3034 RMK A01 T10201028  RH  094%=      5-min Rain = 0
KPD3 070519Z 26002KT M02/M03 A3034 RMK A01 T10191027  RH  094%=      5-min Rain = 0
KPD3 070520Z 27001KT M02/M03 A3034 RMK A01 T10191027  RH  094%=      5-min Rain = 0
KPD3 070521Z 27002KT M02/M03 A3034 RMK A01 T10191028  RH  094%=      5-min Rain = 0
KPD3 070522Z 28001KT M02/M03 A3034 RMK A01 T10191028  RH  094%=      5-min Rain = 0
KPD3 070523Z 29002KT M02/M03 A3034 RMK A01 T10201029  RH  093%=      5-min Rain = 0
KPD3 070524Z 30002KT M02/M03 A3034 RMK A01 T10211030  RH  093%=      5-min Rain = 0
KPD3 070525Z 30002KT M02/M03 A3034 RMK A01 T10211031  RH  093%=      5-min Rain = 0
KPD3 070526Z 29002KT M02/M03 A3034 RMK A01 T10221031  RH  093%=      5-min Rain = 0
KPD3 070527Z 28002KT M02/M03 A3034 RMK A01 T10221031  RH  094%=      5-min Rain = 0
KPD3 070528Z 27002KT M02/M03 A3034 RMK A01 T10221031  RH  094%=      5-min Rain = 0
KPD3 070529Z 27002KT M02/M03 A3034 RMK A01 T10221030  RH  094%=      5-min Rain = 0
KPD3 070530Z 26003KT M02/M03 A3034 RMK A01 T10221030  RH  094%=      5-min Rain = 0
KPD3 070531Z 25003KT M02/M03 A3034 RMK A01 T10211030  RH  094%=      5-min Rain = 0
KPD3 070532Z 25003KT M02/M03 A3034 RMK A01 T10211029  RH  094%=      5-min Rain = 0
KPD3 070533Z 25003KT M02/M03 A3034 RMK A01 T10201027  RH  095%=      5-min Rain = 0
KPD3 070534Z 25003KT M02/M03 A3034 RMK A01 T10191026  RH  095%=      5-min Rain = 0
KPD3 070535Z 25003KT M02/M03 A3034 RMK A01 T10181025  RH  095%=      5-min Rain = 0
KPD3 070536Z 26004KT M02/M02 A3034 RMK A01 T10171024  RH  095%=      5-min Rain = 0
KPD3 070537Z 26003KT M02/M02 A3034 RMK A01 T10161024  RH  095%=      5-min Rain = 0
KPD3 070538Z 27004KT M02/M03 A3034 RMK A01 T10161025  RH  094%=      5-min Rain = 0
KPD3 070539Z 27003KT M02/M03 A3034 RMK A01 T10161025  RH  094%=      5-min Rain = 0
KPD3 070540Z 27003KT M02/M03 A3034 RMK A01 T10161025  RH  094%=      5-min Rain = 0
KPD3 070541Z 27003KT M02/M03 A3034 RMK A01 T10161025  RH  094%=      5-min Rain = 0
KPD3 070542Z 27003KT M02/M03 A3034 RMK A01 T10161025  RH  094%=      5-min Rain = 0
KPD3 070543Z 26003KT M02/M03 A3034 RMK A01 T10161025  RH  094%=      5-min Rain = 0
KPD3 070544Z 26003KT M02/M03 A3034 RMK A01 T10161025  RH  094%=      5-min Rain = 0
KPD3 070545Z 26003KT M02/M03 A3034 RMK A01 T10161025  RH  094%=      5-min Rain = 0
KPD3 070546Z 26003KT M02/M03 A3034 RMK A01 T10171026  RH  094%=      5-min Rain = 0
KPD3 070547Z 26003KT M02/M03 A3034 RMK A01 T10161025  RH  094%=      5-min Rain = 0
KPD3 070548Z 27003KT M02/M03 A3034 RMK A01 T10161025  RH  094%=      5-min Rain = 0
KPD3 070549Z 28003KT M02/M03 A3034 RMK A01 T10161025  RH  094%=      5-min Rain = 0
KPD3 070550Z 28003KT M02/M03 A3034 RMK A01 T10171026  RH  093%=      5-min Rain = 0
KPD3 070551Z 28004KT M02/M03 A3034 RMK A01 T10181027  RH  093%=      5-min Rain = 0
KPD3 070552Z 28004KT M02/M03 A3034 RMK A01 T10181027  RH  093%=      5-min Rain = 0
KPD3 070553Z 28004KT M02/M03 A3034 RMK A01 T10181028  RH  093%=      5-min Rain = 0
KPD3 070554Z 28004KT M02/M03 A3034 RMK A01 T10191028  RH  094%=      5-min Rain = 0
KPD3 070555Z 28004KT M02/M03 A3034 RMK A01 T10181027  RH  094%=      5-min Rain = 0
KPD3 070556Z 28004KT M02/M03 A3034 RMK A01 T10181027  RH  094%=      5-min Rain = 0
KPD3 070557Z 27003KT M02/M03 A3034 RMK A01 T10181026  RH  094%=      5-min Rain = 0
KPD3 070558Z 27003KT M02/M03 A3034 RMK A01 T10181026  RH  094%=      5-min Rain = 0
KPD3 070559Z 27003KT M02/M03 A3034 RMK A01 T10181027  RH  094%=      5-min Rain = 0

Page generated in 0.0827 seconds.